Provisional Data: Susquehanna River near Rockville, PA


Please select a monitoring station.
Please select start date.
Please select start date.

Toggle Unit: C/F Toggle Unit: C/F
Sample Time Temperature (C) Temperature (F) Specific Conductivity (mS/cm) pH   Turbidity (NTU+) DO (mg/L)
5/17/2022 12:00:00 AM 20.48 68.864 7.17 14.38 -5
5/17/2022 12:15:00 AM 20.1 68.18 7.07 14.63 -5
5/17/2022 12:30:00 AM 20.37 68.666 7.05 15.03 -5
5/17/2022 12:45:00 AM 20.23 68.414 6.98 15.1 -5
5/17/2022 1:00:00 AM 20.23 68.414 6.94 15.03 -5
5/17/2022 1:15:00 AM 20.23 68.414 6.91 15.22 -5
5/17/2022 1:30:00 AM 19.99 67.982 6.89 15.2 -5
5/17/2022 1:45:00 AM 20.37 68.666 6.91 15.35 -5
5/17/2022 2:00:00 AM 19.84 67.712 6.91 15.07 -5
5/17/2022 2:15:00 AM 20.11 68.198 6.93 15.13 -5
5/17/2022 2:30:00 AM 20 68 6.93 15.18 -5
5/17/2022 2:45:00 AM 19.99 67.982 6.95 15.29 -5
5/17/2022 3:00:00 AM 19.99 67.982 6.95 15.41 -5
5/17/2022 3:15:00 AM 19.73 67.514 6.96 15.51 -5
5/17/2022 3:30:00 AM 19.99 67.982 6.98 15.68 -5
5/17/2022 3:45:00 AM 19.62 67.316 6.97 15.88 -5
5/17/2022 4:00:00 AM 19.73 67.514 6.96 15.86 -5
5/17/2022 4:15:00 AM 19.61 67.298 6.92 15.82 -5
5/17/2022 4:30:00 AM 19.62 67.316 6.9 15.87 -5
5/17/2022 4:45:00 AM 19.73 67.514 6.89 15.75 -5
5/17/2022 5:00:00 AM 19.36 66.848 6.88 15.5 -5
5/17/2022 5:15:00 AM 19.73 67.514 6.87 15.42 -5
5/17/2022 5:30:00 AM 19.23 66.614 6.85 15.48 -5
5/17/2022 5:45:00 AM 19.47 67.046 6.84 15.62 -5
5/17/2022 6:00:00 AM 19.23 66.614 6.84 15.56 -5
5/17/2022 6:15:00 AM 19.36 66.848 6.82 15.48 -5
5/17/2022 6:30:00 AM 19.23 66.614 6.89 13.67 -5
5/17/2022 6:45:00 AM 19.1 66.38 7.12 13.2 -5
5/17/2022 7:00:00 AM 19.23 66.614 7.17 13.13 -5
5/17/2022 7:15:00 AM 18.98 66.164 7.21 13.32 -5
5/17/2022 7:30:00 AM 19.1 66.38 7.22 12.98 -5
5/17/2022 7:45:00 AM 18.98 66.164 7.22 13.17 -5
5/17/2022 8:00:00 AM 19.1 66.38 7.22 13.23 -5
5/17/2022 8:15:00 AM 19.1 66.38 7.21 13.19 -5
5/17/2022 8:30:00 AM 19.1 66.38 7.2 13.31 -5
5/17/2022 8:45:00 AM 19.1 66.38 7.19 13.56 -5
5/17/2022 9:00:00 AM 18.98 66.164 7.2 13.4 -5
5/17/2022 9:15:00 AM 19.1 66.38 7.2 13.36 -5
5/17/2022 9:30:00 AM 18.98 66.164 7.21 13.55 -5
5/17/2022 9:45:00 AM 19.23 66.614 7.22 13.78 -5
5/17/2022 10:00:00 AM 19.1 66.38 7.23 13.86 -5
5/17/2022 10:15:00 AM 19.23 66.614 7.24 13.87 -5
5/17/2022 10:30:00 AM 19.1 66.38 7.24 13.84 -5
5/17/2022 10:45:00 AM 19.36 66.848 7.25 14.06 -5
5/17/2022 11:00:00 AM 19.1 66.38 7.27 14.19 -5
5/17/2022 11:15:00 AM 19.36 66.848 7.28 14.19 -5
5/17/2022 11:30:00 AM 19.23 66.614 7.28 14.01 -5
5/17/2022 11:45:00 AM 19.36 66.848 7.29 14.12 -5
5/17/2022 12:00:00 PM 19.47 67.046 7.31 13.98 -5
5/17/2022 12:15:00 PM 19.23 66.614 7.32 14.07 -5
5/17/2022 12:30:00 PM 19.61 67.298 7.33 14.26 -5
5/17/2022 12:45:00 PM 19.36 66.848 7.33 14.32 -5
5/17/2022 1:00:00 PM 19.71 67.478 7.34 14.43 -5
5/17/2022 1:15:00 PM 19.36 66.848 7.35 14.47 -5
5/17/2022 1:30:00 PM 19.69 67.442 7.37 14.53 -5
5/17/2022 1:45:00 PM 19.62 67.316 7.38 14.7 -5
5/17/2022 2:00:00 PM 19.62 67.316 7.39 14.9 -5
5/17/2022 2:15:00 PM 19.84 67.712 7.41 14.73 -5
5/17/2022 2:30:00 PM 19.73 67.514 7.42 14.8 -5
5/17/2022 2:45:00 PM 19.99 67.982 7.42 15.03 -5
5/17/2022 3:00:00 PM 19.73 67.514 7.44 14.93 -5
5/17/2022 3:15:00 PM 20.11 68.198 7.45 14.76 -5
5/17/2022 3:30:00 PM 19.73 67.514 7.44 14.41 -5
5/17/2022 3:45:00 PM 20.11 68.198 7.46 14.86 -5
5/17/2022 4:00:00 PM 19.99 67.982 7.43 14.84 -5
5/17/2022 4:15:00 PM 19.99 67.982 7.42 14.8 -5
5/17/2022 4:30:00 PM 20.37 68.666 7.42 14.92 -5
5/17/2022 4:45:00 PM 19.99 67.982 7.44 14.96 -5
5/17/2022 5:00:00 PM 20.23 68.414 7.54 14.97 -5
5/17/2022 5:15:00 PM 20.11 68.198 7.57 15.1 -5
5/17/2022 5:30:00 PM 20.1 68.18 7.58 15.14 -5
5/17/2022 5:45:00 PM 20.23 68.414 7.6 15.37 -5
5/17/2022 6:00:00 PM 19.99 67.982 7.62 15.36 -5
5/17/2022 6:15:00 PM 20.36 68.648 7.63 15.64 -5
5/17/2022 6:30:00 PM 19.99 67.982 7.65 15.63 -5
5/17/2022 6:45:00 PM 20.23 68.414 7.66 15.5 -5
5/17/2022 7:00:00 PM 19.99 67.982 7.66 15.23 -5
5/17/2022 7:15:00 PM 19.73 67.514 7.66 15.15 -5
5/17/2022 7:30:00 PM 20.11 68.198 7.63 14.78 -5
5/17/2022 7:45:00 PM 19.73 67.514 7.59 14.67 -5
5/17/2022 8:00:00 PM 19.84 67.712 7.52 14.71 -5
5/17/2022 8:15:00 PM 19.73 67.514 7.62 14.41 -5
5/17/2022 8:30:00 PM 19.84 67.712 7.68 14.37 -5
5/17/2022 8:45:00 PM 19.84 67.712 7.7 14.44 -5
5/17/2022 9:00:00 PM 19.47 67.046 7.71 14.36 -5
5/17/2022 9:15:00 PM 19.73 67.514 7.72 14.4 -5
5/17/2022 9:30:00 PM 19.62 67.316 7.72 14.43 -5
5/17/2022 9:45:00 PM 19.62 67.316 7.71 14.3 -5
5/17/2022 10:00:00 PM 19.62 67.316 7.71 14.43 -5
5/17/2022 10:15:00 PM 19.62 67.316 7.7 14.54 -5
5/17/2022 10:30:00 PM 19.62 67.316 7.71 14.5 -5
5/17/2022 10:45:00 PM 19.47 67.046 7.71 14.85 -5
5/17/2022 11:00:00 PM 19.73 67.514 7.74 14.78 -5
5/17/2022 11:15:00 PM 19.47 67.046 7.7 14.88 -5
5/17/2022 11:30:00 PM 19.73 67.514 7.7 14.84 -5
5/17/2022 11:45:00 PM 19.47 67.046 7.7 14.92 -5
5/18/2022 12:00:00 AM 19.84 67.712 7.7 15.06 -5
5/18/2022 12:15:00 AM 19.62 67.316 7.7 15.16 -5
5/18/2022 12:30:00 AM 19.84 67.712 7.68 15.39 -5
5/18/2022 12:45:00 AM 19.47 67.046 7.68 15.7 -5
5/18/2022 1:00:00 AM 19.84 67.712 7.66 15.83 -5
5/18/2022 1:15:00 AM 19.47 67.046 7.66 15.79 -5
5/18/2022 1:30:00 AM 19.84 67.712 7.63 16.17 -5
5/18/2022 1:45:00 AM 19.47 67.046 7.62 16.28 -5
5/18/2022 2:00:00 AM 19.73 67.514 7.6 16.16 -5
5/18/2022 2:15:00 AM 19.47 67.046 7.58 16.31 -5
5/18/2022 2:30:00 AM 19.7 67.46 7.56 16.13 -5
5/18/2022 2:45:00 AM 19.36 66.848 7.54 16.72 -5
5/18/2022 3:00:00 AM 19.47 67.046 7.53 16.44 -5
5/18/2022 3:15:00 AM 19.36 66.848 7.51 16.52 -5
5/18/2022 3:30:00 AM 19.47 67.046 7.48 16.57 -5
5/18/2022 3:45:00 AM 19.23 66.614 7.48 16.73 -5
5/18/2022 4:00:00 AM 19.23 66.614 7.46 16.73 -5
5/18/2022 4:15:00 AM 19.23 66.614 7.44 16.69 -5
5/18/2022 4:30:00 AM 19.1 66.38 7.43 16.65 -5
5/18/2022 4:45:00 AM 19.1 66.38 7.41 16.94 -5
5/18/2022 5:00:00 AM 18.98 66.164 7.4 16.59 -5
5/18/2022 5:15:00 AM 19.1 66.38 7.38 16.57 -5
5/18/2022 5:30:00 AM 18.86 65.948 7.37 16.41 -5
5/18/2022 5:45:00 AM 18.98 66.164 7.35 16.55 -5
5/18/2022 6:00:00 AM 18.86 65.948 7.34 16.54 -5
5/18/2022 6:15:00 AM 18.86 65.948 7.32 16.58 -5
5/18/2022 6:30:00 AM 18.86 65.948 7.32 16.51 -5
5/18/2022 6:45:00 AM 18.73 65.714 7.31 16.75 -5
5/18/2022 7:00:00 AM 18.73 65.714 7.29 16.55 -5
5/18/2022 7:15:00 AM 18.59 65.462 7.29 15.49 -5
5/18/2022 7:30:00 AM 18.72 65.696 7.3 15.49 -5
5/18/2022 7:45:00 AM 18.48 65.264 7.29 15.4 -5
5/18/2022 8:00:00 AM 18.72 65.696 7.3 15.36 -5
5/18/2022 8:15:00 AM 18.35 65.03 7.3 15.19 -5
5/18/2022 8:30:00 AM 18.73 65.714 7.31 15.42 -5
5/18/2022 8:45:00 AM 18.35 65.03 7.31 15.37 -5
5/18/2022 9:00:00 AM 18.73 65.714 7.31 15.22 -5
5/18/2022 9:15:00 AM 18.35 65.03 7.32 15.29 -5
5/18/2022 9:30:00 AM 18.73 65.714 7.32 15.25 -5
5/18/2022 9:45:00 AM 18.35 65.03 7.32 15.1 -5
5/18/2022 10:00:00 AM 18.73 65.714 7.33 15.18 -5
5/18/2022 10:15:00 AM 18.39 65.102 7.33 15 -5
5/18/2022 10:30:00 AM 18.86 65.948 7.33 15.07 -5
5/18/2022 10:45:00 AM 18.59 65.462 7.32 15.03 -5
5/18/2022 11:00:00 AM 18.86 65.948 7.32 15.36 -5
5/18/2022 11:15:00 AM 18.73 65.714 7.32 15.19 -5
5/18/2022 11:30:00 AM 18.86 65.948 7.32 15.34 -5
5/18/2022 11:45:00 AM 18.86 65.948 7.32 15.25 -5
5/18/2022 12:00:00 PM 18.98 66.164 7.32 15.43 -5
5/18/2022 12:15:00 PM 18.86 65.948 7.33 15.64 -5
5/18/2022 12:30:00 PM 19.1 66.38 7.33 15.47 -5
5/18/2022 12:45:00 PM 18.86 65.948 7.35 15.96 -5
5/18/2022 1:00:00 PM 19.1 66.38 7.34 16.19 -5
5/18/2022 1:15:00 PM 18.98 66.164 7.36 15.98 -5
5/18/2022 1:30:00 PM 19.23 66.614 7.39 15.9 -5
5/18/2022 1:45:00 PM 19.1 66.38 7.4 15.73 -5
5/18/2022 2:00:00 PM 19.36 66.848 7.41 15.8 -5
5/18/2022 2:15:00 PM 19.1 66.38 7.43 15.73 -5
5/18/2022 2:30:00 PM 19.47 67.046 7.44 15.86 -5
5/18/2022 2:45:00 PM 19.23 66.614 7.52 15.51 -5
5/18/2022 3:00:00 PM 19.47 67.046 7.55 15.43 -5
5/18/2022 3:15:00 PM 19.36 66.848 7.57 15.72 -5
5/18/2022 3:30:00 PM 19.47 67.046 7.6 15.5 -5
5/18/2022 3:45:00 PM 19.62 67.316 7.63 15.49 -5
5/18/2022 4:00:00 PM 19.62 67.316 7.65 15.26 -5
5/18/2022 4:15:00 PM 19.62 67.316 7.62 15.36 -5
5/18/2022 4:30:00 PM 19.62 67.316 7.61 15.36 -5
5/18/2022 4:45:00 PM 19.62 67.316 7.63 15.14 -5
5/18/2022 5:00:00 PM 19.62 67.316 7.66 15.11 -5
5/18/2022 5:15:00 PM 19.62 67.316 7.66 15.05 -5
5/18/2022 5:30:00 PM 19.73 67.514 7.68 15.2 -5
5/18/2022 5:45:00 PM 19.73 67.514 7.69 14.98 -5
5/18/2022 6:00:00 PM 19.73 67.514 7.69 14.99 -5
5/18/2022 6:15:00 PM 19.73 67.514 7.7 14.96 -5
5/18/2022 6:30:00 PM 19.73 67.514 7.69 15.11 -5
5/18/2022 6:45:00 PM 19.73 67.514 7.69 14.72 -5
5/18/2022 7:00:00 PM 19.73 67.514 7.68 14.8 -5
5/18/2022 7:15:00 PM 19.73 67.514 7.67 14.8 -5
5/18/2022 7:30:00 PM 19.73 67.514 7.67 14.67 -5
5/18/2022 7:45:00 PM 19.73 67.514 7.67 14.54 -5
5/18/2022 8:00:00 PM 19.73 67.514 7.67 15.53 -5
5/18/2022 8:15:00 PM 19.73 67.514 7.63 14.59 -5
5/18/2022 8:30:00 PM 19.73 67.514 7.6 14.53 -5
5/18/2022 8:45:00 PM 19.73 67.514 7.58 14.59 -5
5/18/2022 9:00:00 PM 19.73 67.514 7.56 14.45 -5
5/18/2022 9:15:00 PM 19.62 67.316 7.54 14.52 -5
5/18/2022 9:30:00 PM 19.73 67.514 7.54 14.63 -5
5/18/2022 9:45:00 PM 19.62 67.316 7.54 14.62 -5
5/18/2022 10:00:00 PM 19.78 67.604 7.53 14.59 -5
5/18/2022 10:15:00 PM 19.62 67.316 7.52 14.73 -5
5/18/2022 10:30:00 PM 19.84 67.712 7.51 14.67 -5
5/18/2022 10:45:00 PM 19.47 67.046 7.49 14.45 -5
5/18/2022 11:00:00 PM 19.73 67.514 7.48 14.72 -5
5/18/2022 11:15:00 PM 19.62 67.316 7.48 14.71 -5
5/18/2022 11:30:00 PM 19.62 67.316 7.48 14.57 -5
5/18/2022 11:45:00 PM 19.62 67.316 7.47 14.39 -5
5/19/2022 12:00:00 AM 19.47 67.046 7.45 14.45 -5
5/19/2022 12:15:00 AM 19.62 67.316 7.45 14.66 -5
5/19/2022 12:30:00 AM 19.36 66.848 7.43 14.47 -5
5/19/2022 12:45:00 AM 19.62 67.316 7.42 14.27 -5
5/19/2022 1:00:00 AM 19.36 66.848 7.41 14.46 -5
5/19/2022 1:15:00 AM 19.36 66.848 7.4 14.38 -5
5/19/2022 1:30:00 AM 19.36 66.848 7.39 14.32 -5
5/19/2022 1:45:00 AM 19.23 66.614 7.37 14.2 -5
5/19/2022 2:00:00 AM 19.36 66.848 7.36 14.23 -5
5/19/2022 2:15:00 AM 19.09 66.362 7.35 14.71 -5
5/19/2022 2:30:00 AM 19.36 66.848 7.34 14.99 -5
5/19/2022 2:45:00 AM 19.1 66.38 7.33 14.71 -5
5/19/2022 3:00:00 AM 19.1 66.38 7.32 14.84 -5
5/19/2022 3:15:00 AM 19.1 66.38 7.3 14.82 -5
5/19/2022 3:30:00 AM 19.1 66.38 7.29 14.86 -5
5/19/2022 3:45:00 AM 19.1 66.38 7.28 14.7 -5
5/19/2022 4:00:00 AM 18.97 66.146 7.27 14.77 -5
5/19/2022 4:15:00 AM 19.1 66.38 7.26 14.64 -5
5/19/2022 4:30:00 AM 18.86 65.948 7.24 14.66 -5
5/19/2022 4:45:00 AM 18.98 66.164 7.23 14.53 -5
5/19/2022 5:00:00 AM 18.86 65.948 7.22 14.42 -5
5/19/2022 5:15:00 AM 18.86 65.948 7.2 14.75 -5
5/19/2022 5:30:00 AM 18.98 66.164 7.18 14.53 -5
5/19/2022 5:45:00 AM 18.73 65.714 7.17 14.39 -5
5/19/2022 6:00:00 AM 18.86 65.948 7.15 14.66 -5
5/19/2022 6:15:00 AM 18.73 65.714 7.1 14.02 -5
5/19/2022 6:30:00 AM 18.86 65.948 7.1 14.28 -5
5/19/2022 6:45:00 AM 18.72 65.696 7.09 14.2 -5
5/19/2022 7:00:00 AM 18.73 65.714 7.09 14.12 -5
5/19/2022 7:15:00 AM 18.72 65.696 7.19 12.34 -5
5/19/2022 7:30:00 AM 18.72 65.696 7.25 11.87 -5
5/19/2022 7:45:00 AM 18.86 65.948 7.25 12.04 -5
5/19/2022 8:00:00 AM 18.48 65.264 7.26 12.35 -5
5/19/2022 8:15:00 AM 18.73 65.714 7.26 12.14 -5
5/19/2022 8:30:00 AM 18.48 65.264 7.25 12.13 -5
5/19/2022 8:45:00 AM 18.59 65.462 7.25 12.8 -5
5/19/2022 9:00:00 AM 18.59 65.462 7.27 12.73 -5
5/19/2022 9:15:00 AM 18.48 65.264 7.27 13 -5
5/19/2022 9:30:00 AM 18.73 65.714 7.27 13.03 -5
5/19/2022 9:45:00 AM 18.48 65.264 7.28 12.99 -5
5/19/2022 10:00:00 AM 18.72 65.696 7.29 12.9 -5
5/19/2022 10:15:00 AM 18.48 65.264 7.3 12.92 -5
5/19/2022 10:30:00 AM 18.59 65.462 7.3 12.99 -5
5/19/2022 10:45:00 AM 18.59 65.462 7.3 13.05 -5
5/19/2022 11:00:00 AM 18.48 65.264 7.31 12.99 -5
5/19/2022 11:15:00 AM 18.72 65.696 7.33 13.09 -5
5/19/2022 11:30:00 AM 18.48 65.264 7.33 13.12 -5
5/19/2022 11:45:00 AM 18.72 65.696 7.34 13.12 -5
5/19/2022 12:00:00 PM 18.48 65.264 7.37 13.06 -5
5/19/2022 12:15:00 PM 18.73 65.714 7.37 13.36 -5
5/19/2022 12:30:00 PM 18.72 65.696 7.39 13.58 -5
5/19/2022 12:45:00 PM 18.86 65.948 7.41 13.42 -5
5/19/2022 1:00:00 PM 18.86 65.948 7.44 13.45 -5
5/19/2022 1:15:00 PM 18.86 65.948 7.46 13.44 -5
5/19/2022 1:30:00 PM 19.1 66.38 7.46 13.47 -5
5/19/2022 1:45:00 PM 18.86 65.948 7.49 13.78 -5
5/19/2022 2:00:00 PM 19.1 66.38 7.51 13.69 -5
5/19/2022 2:15:00 PM 18.98 66.164 7.54 13.62 -5
5/19/2022 2:30:00 PM 19.1 66.38 7.54 13.71 -5
5/19/2022 2:45:00 PM 19.1 66.38 7.55 13.67 -5
5/19/2022 3:00:00 PM 19.1 66.38 7.57 13.62 -5
5/19/2022 3:15:00 PM 19.23 66.614 7.58 13.61 -5
5/19/2022 3:30:00 PM 19.1 66.38 7.6 13.82 -5
5/19/2022 3:45:00 PM 19.47 67.046 7.63 13.62 -5
5/19/2022 4:00:00 PM 19.23 66.614 7.65 13.7 -5
5/19/2022 4:15:00 PM 19.47 67.046 7.68 13.65 -5
5/19/2022 4:30:00 PM 19.36 66.848 7.68 13.65 -5
5/19/2022 4:45:00 PM 19.47 67.046 7.69 13.46 -5
5/19/2022 5:00:00 PM 19.47 67.046 7.72 13.52 -5
5/19/2022 5:15:00 PM 19.36 66.848 7.73 13.41 -5
5/19/2022 5:30:00 PM 19.62 67.316 7.73 13.7 -5
5/19/2022 5:45:00 PM 19.36 66.848 7.76 13.75 -5
5/19/2022 6:00:00 PM 19.62 67.316 7.77 13.98 -5
5/19/2022 6:15:00 PM 19.62 67.316 7.8 13.62 -5
5/19/2022 6:30:00 PM 19.73 67.514 7.8 13.67 -5
5/19/2022 6:45:00 PM 19.84 67.712 7.82 13.87 -5
5/19/2022 7:00:00 PM 19.62 67.316 7.84 13.77 -5
5/19/2022 7:15:00 PM 19.99 67.982 7.85 13.9 -5
5/19/2022 7:30:00 PM 19.73 67.514 7.85 13.89 -5
5/19/2022 7:45:00 PM 19.99 67.982 7.87 13.75 -5
5/19/2022 8:00:00 PM 19.84 67.712 7.87 13.69 -5
5/19/2022 8:15:00 PM 19.73 67.514 7.86 13.63 -5
5/19/2022 8:30:00 PM 19.99 67.982 7.85 13.54 -5
5/19/2022 8:45:00 PM 19.62 67.316 7.85 13.49 -5
5/19/2022 9:00:00 PM 19.73 67.514 7.84 13.33 -5
5/19/2022 9:15:00 PM 19.84 67.712 7.82 13.44 -5
5/19/2022 9:30:00 PM 19.62 67.316 7.81 13.77 -5
5/19/2022 9:45:00 PM 19.84 67.712 7.81 13.89 -5
5/19/2022 10:00:00 PM 19.73 67.514 7.81 13.73 -5
5/19/2022 10:15:00 PM 19.73 67.514 7.8 13.81 -5
5/19/2022 10:30:00 PM 19.99 67.982 7.78 13.66 -5
5/19/2022 10:45:00 PM 19.73 67.514 7.78 13.58 -5
5/19/2022 11:00:00 PM 19.84 67.712 7.77 13.68 -5
5/19/2022 11:15:00 PM 19.84 67.712 7.76 13.5 -5
5/19/2022 11:30:00 PM 19.73 67.514 7.73 14.03 -5
5/19/2022 11:45:00 PM 19.73 67.514 7.73 13.78 -5
5/20/2022 12:00:00 AM 19.62 67.316 7.72 13.6 -5
5/20/2022 12:15:00 AM 19.84 67.712 7.7 13.48 -5
5/20/2022 12:30:00 AM 19.47 67.046 7.68 13.65 -5
5/20/2022 12:45:00 AM 19.73 67.514 7.67 13.66 -5
5/20/2022 1:00:00 AM 19.62 67.316 7.65 13.89 -5
5/20/2022 1:15:00 AM 19.47 67.046 7.64 14.02 -5
5/20/2022 1:30:00 AM 19.73 67.514 7.62 14.28 -5
5/20/2022 1:45:00 AM 19.47 67.046 7.61 14 -5
5/20/2022 2:00:00 AM 19.62 67.316 7.6 14.06 -5
5/20/2022 2:15:00 AM 19.62 67.316 7.58 13.96 -5
5/20/2022 2:30:00 AM 19.36 66.848 7.56 13.92 -5
5/20/2022 2:45:00 AM 19.73 67.514 7.54 13.84 -5
5/20/2022 3:00:00 AM 19.36 66.848 7.53 13.76 -5
5/20/2022 3:15:00 AM 19.47 67.046 7.52 13.88 -5
5/20/2022 3:30:00 AM 19.47 67.046 7.5 13.99 -5
5/20/2022 3:45:00 AM 19.36 66.848 7.48 13.94 -5
5/20/2022 4:00:00 AM 19.62 67.316 7.47 14.38 -5
5/20/2022 4:15:00 AM 19.23 66.614 7.46 14.27 -5
5/20/2022 4:30:00 AM 19.47 67.046 7.44 14.37 -5
5/20/2022 4:45:00 AM 19.36 66.848 7.43 14.2 -5
5/20/2022 5:00:00 AM 19.36 66.848 7.42 14.19 -5
5/20/2022 5:15:00 AM 19.47 67.046 7.4 14.17 -5
5/20/2022 5:30:00 AM 19.23 66.614 7.39 14.32 -5
5/20/2022 5:45:00 AM 19.47 67.046 7.38 14.18 -5
5/20/2022 6:00:00 AM 19.23 66.614 7.37 14.2 -5
5/20/2022 6:15:00 AM 19.23 66.614 7.36 13.96 -5
5/20/2022 6:30:00 AM 19.36 66.848 7.35 13.93 -5
5/20/2022 6:45:00 AM 19.1 66.38 7.34 13.78 -5
5/20/2022 7:00:00 AM 19.36 66.848 7.33 13.78 -5
5/20/2022 7:15:00 AM 19.1 66.38 7.33 13.13 -5
5/20/2022 7:30:00 AM 19.23 66.614 7.3 12.74 -5
5/20/2022 7:45:00 AM 18.98 66.164 7.29 12.64 -5
5/20/2022 8:00:00 AM 19.1 66.38 7.29 12.73 -5
5/20/2022 8:15:00 AM 18.98 66.164 7.28 12.78 -5
5/20/2022 8:30:00 AM 19.1 66.38 7.28 12.81 -5
5/20/2022 8:45:00 AM 18.98 66.164 7.28 12.7 -5
5/20/2022 9:00:00 AM 18.98 66.164 7.28 12.82 -5
5/20/2022 9:15:00 AM 19.1 66.38 7.27 13.01 -5
5/20/2022 9:30:00 AM 18.98 66.164 7.27 12.96 -5
5/20/2022 9:45:00 AM 19.1 66.38 7.27 13.03 -5
5/20/2022 10:00:00 AM 18.86 65.948 7.27 24.36 -5
5/20/2022 10:15:00 AM 19.1 66.38 7.29 11.16 -5
5/20/2022 10:30:00 AM 19.1 66.38 7.29 11.37 -5
5/20/2022 10:45:00 AM 19.1 66.38 7.29 11.46 -5
5/20/2022 11:00:00 AM 19.1 66.38 7.29 11.5 -5
5/20/2022 11:15:00 AM 19.23 66.614 7.29 11.78 -5
5/20/2022 11:30:00 AM 19.1 66.38 7.39 11.71 -5
5/20/2022 11:45:00 AM 19.23 66.614 7.55 11.9 -5
5/20/2022 12:00:00 PM 19.1 66.38 7.6 11.94 -5
5/20/2022 12:15:00 PM 19.23 66.614 7.65 12.05 -5
5/20/2022 12:30:00 PM 19.36 66.848 7.67 12.05 -5
5/20/2022 12:45:00 PM 19.1 66.38 7.68 12.05 -5
5/20/2022 1:00:00 PM 19.36 66.848 7.72 12.23 -5
5/20/2022 1:15:00 PM 19.1 66.38 7.73 12.3 -5
5/20/2022 1:30:00 PM 19.36 66.848 7.72 12.23 -5
5/20/2022 1:45:00 PM 19.23 66.614 7.75 12.26 -5
5/20/2022 2:00:00 PM 19.23 66.614 7.76 12.43 -5
5/20/2022 2:15:00 PM 19.47 67.046 7.78 12.36 -5
5/20/2022 2:30:00 PM 19.23 66.614 7.78 12.3 -5
5/20/2022 2:45:00 PM 19.47 67.046 7.81 12.45 -5
5/20/2022 3:00:00 PM 19.47 67.046 7.82 12.43 -5
5/20/2022 3:15:00 PM 19.47 67.046 7.84 12.62 -5
5/20/2022 3:30:00 PM 19.62 67.316 7.83 12.62 -5
5/20/2022 3:45:00 PM 19.36 66.848 7.84 12.57 -5
5/20/2022 4:00:00 PM 19.62 67.316 7.85 12.63 -5
5/20/2022 4:15:00 PM 19.36 66.848 7.88 12.65 -5
5/20/2022 4:30:00 PM 19.47 67.046 7.89 12.66 -5
5/20/2022 4:45:00 PM 19.47 67.046 7.91 12.65 -5
5/20/2022 5:00:00 PM 19.47 67.046 7.92 12.7 -5
5/20/2022 5:15:00 PM 19.62 67.316 7.95 12.94 -5
5/20/2022 5:30:00 PM 19.36 66.848 7.94 12.83 -5
5/20/2022 5:45:00 PM 19.73 67.514 7.97 12.99 -5
5/20/2022 6:00:00 PM 19.36 66.848 7.98 12.96 -5
5/20/2022 6:15:00 PM 19.73 67.514 8.01 13.11 -5
5/20/2022 6:30:00 PM 19.47 67.046 8.02 12.89 -5
5/20/2022 6:45:00 PM 19.73 67.514 8.03 12.85 -5
5/20/2022 7:00:00 PM 19.62 67.316 8.04 12.71 -5
5/20/2022 7:15:00 PM 19.62 67.316 8.05 12.88 -5
5/20/2022 7:30:00 PM 19.62 67.316 8.02 12.66 -5
5/20/2022 7:45:00 PM 19.47 67.046 8.05 12.71 -5
5/20/2022 8:00:00 PM 19.73 67.514 8.04 12.73 -5
5/20/2022 8:15:00 PM 19.36 66.848 8.04 12.64 -5
5/20/2022 8:30:00 PM 19.62 67.316 8.02 12.59 -5
5/20/2022 8:45:00 PM 19.36 66.848 8.01 12.47 -5
5/20/2022 9:00:00 PM 19.47 67.046 8 12.54 -5
5/20/2022 9:15:00 PM 19.62 67.316 8 12.56 -5
5/20/2022 9:30:00 PM 19.36 66.848 7.97 12.48 -5
5/20/2022 9:45:00 PM 19.62 67.316 7.97 12.43 -5
5/20/2022 10:00:00 PM 19.36 66.848 7.96 12.69 -5
5/20/2022 10:15:00 PM 19.62 67.316 7.95 12.75 -5
5/20/2022 10:30:00 PM 19.36 66.848 7.94 12.54 -5
5/20/2022 10:45:00 PM 19.47 67.046 7.93 12.69 -5
5/20/2022 11:00:00 PM 19.47 67.046 7.92 12.59 -5
5/20/2022 11:15:00 PM 19.47 67.046 7.9 12.79 -5
5/20/2022 11:30:00 PM 19.73 67.514 7.89 12.63 -5
5/20/2022 11:45:00 PM 19.36 66.848 7.89 12.62 -5
5/21/2022 12:00:00 AM 19.62 67.316 7.88 12.58 -5
5/21/2022 12:15:00 AM 19.36 66.848 7.87 12.46 -5
5/21/2022 12:30:00 AM 19.47 67.046 7.85 12.32 -5
5/21/2022 12:45:00 AM 19.47 67.046 7.84 12.41 -5
5/21/2022 1:00:00 AM 19.36 66.848 7.84 12.31 -5
5/21/2022 1:15:00 AM 19.62 67.316 7.83 12.44 -5
5/21/2022 1:30:00 AM 19.36 66.848 7.81 12.34 -5
5/21/2022 1:45:00 AM 19.62 67.316 7.8 12.38 -5
5/21/2022 2:00:00 AM 19.47 67.046 7.79 12.36 -5
5/21/2022 2:15:00 AM 19.47 67.046 7.78 12.32 -5
5/21/2022 2:30:00 AM 19.47 67.046 7.75 12.33 -5
5/21/2022 2:45:00 AM 19.36 66.848 7.74 12.31 -5
5/21/2022 3:00:00 AM 19.62 67.316 7.72 12.63 -5
5/21/2022 3:15:00 AM 19.23 66.614 7.71 12.75 -5
5/21/2022 3:30:00 AM 19.47 67.046 7.7 12.29 -5
5/21/2022 3:45:00 AM 19.23 66.614 7.68 12.42 -5
5/21/2022 4:00:00 AM 19.36 66.848 7.67 12.43 -5
5/21/2022 4:15:00 AM 19.36 66.848 7.66 12.41 -5
5/21/2022 4:30:00 AM 19.23 66.614 7.64 12.38 -5
5/21/2022 4:45:00 AM 19.47 67.046 7.63 12.5 -5
5/21/2022 5:00:00 AM 19.1 66.38 7.62 12.28 -5
5/21/2022 5:15:00 AM 19.36 66.848 7.61 12.51 -5
5/21/2022 5:30:00 AM 19.23 66.614 7.6 12.11 -5
5/21/2022 5:45:00 AM 19.23 66.614 7.59 12.01 -5
5/21/2022 6:00:00 AM 19.36 66.848 7.58 12.11 -5
5/21/2022 6:15:00 AM 19.1 66.38 7.56 12.29 -5
5/21/2022 6:30:00 AM 19.36 66.848 7.55 12.22 -5
5/21/2022 6:45:00 AM 19.1 66.38 7.55 12.17 -5
5/21/2022 7:00:00 AM 19.36 66.848 7.54 12.16 -5
5/21/2022 7:15:00 AM 19.1 66.38 7.53 12.19 -5
5/21/2022 7:30:00 AM 19.23 66.614 7.53 12.08 -5
5/21/2022 7:45:00 AM 19.23 66.614 7.53 12.23 -5
5/21/2022 8:00:00 AM 19.1 66.38 7.53 12.29 -5
5/21/2022 8:15:00 AM 19.36 66.848 7.53 12.28 -5
5/21/2022 8:30:00 AM 19.1 66.38 7.54 12.18 -5
5/21/2022 8:45:00 AM 19.36 66.848 7.54 12.29 -5
5/21/2022 9:00:00 AM 19.1 66.38 7.54 12.35 -5
5/21/2022 9:15:00 AM 19.23 66.614 7.55 12.44 -5
5/21/2022 9:30:00 AM 19.23 66.614 7.56 12.44 -5
5/21/2022 9:45:00 AM 19.23 66.614 7.57 12.35 -5
5/21/2022 10:00:00 AM 19.47 67.046 7.59 12.4 -5
5/21/2022 10:15:00 AM 19.23 66.614 7.6 13.17 -5
5/21/2022 10:30:00 AM 19.62 67.316 7.62 12.73 -5
5/21/2022 10:45:00 AM 19.36 66.848 7.64 12.74 -5
5/21/2022 11:00:00 AM 19.73 67.514 7.66 12.71 -5
5/21/2022 11:15:00 AM 19.62 67.316 7.68 12.92 -5
5/21/2022 11:30:00 AM 19.73 67.514 7.69 12.67 -5
5/21/2022 11:45:00 AM 19.84 67.712 7.71 12.78 -5
5/21/2022 12:00:00 PM 19.84 67.712 7.73 12.78 -5
5/21/2022 12:15:00 PM 20.11 68.198 7.74 13.13 -5
5/21/2022 12:30:00 PM 19.99 67.982 7.76 12.96 -5
5/21/2022 12:45:00 PM 20.23 68.414 7.78 13.13 -5
5/21/2022 1:00:00 PM 20.23 68.414 7.8 13.38 -5
5/21/2022 1:15:00 PM 20.23 68.414 7.82 13.56 -5
5/21/2022 1:30:00 PM 20.61 69.098 7.84 13.29 -5
5/21/2022 1:45:00 PM 20.48 68.864 7.87 13.2 -5
5/21/2022 2:00:00 PM 20.48 68.864 7.88 13.23 -5
5/21/2022 2:15:00 PM 20.86 69.548 7.9 13.42 -5
5/21/2022 2:30:00 PM 20.74 69.332 7.9 13.44 -5
5/21/2022 2:45:00 PM 20.74 69.332 7.94 13.4 -5
5/21/2022 3:00:00 PM 21.11 69.998 7.96 13.36 -5
5/21/2022 3:15:00 PM 20.98 69.764 7.98 13.53 -5
5/21/2022 3:30:00 PM 20.98 69.764 8.01 13.31 -5
5/21/2022 3:45:00 PM 20.98 69.764 8.03 13.23 -5
5/21/2022 4:00:00 PM 21.11 69.998 8.05 13.2 -5
5/21/2022 4:15:00 PM 21.36 70.448 8.07 13.33 -5
5/21/2022 4:30:00 PM 21.36 70.448 8.09 13.15 -5
5/21/2022 4:45:00 PM 21.36 70.448 8.11 13.12 -5
5/21/2022 5:00:00 PM 21.36 70.448 8.12 13.03 -5
5/21/2022 5:15:00 PM 21.5 70.7 8.13 13.19 -5
5/21/2022 5:30:00 PM 21.5 70.7 8.15 13.08 -5
5/21/2022 5:45:00 PM 21.62 70.916 8.17 13.08 -5
5/21/2022 6:00:00 PM 21.62 70.916 8.18 13.15 -5
5/21/2022 6:15:00 PM 21.62 70.916 8.2 13.11 -5
5/21/2022 6:30:00 PM 21.87 71.366 8.21 12.87 -5
5/21/2022 6:45:00 PM 21.87 71.366 8.21 12.82 -5
5/21/2022 7:00:00 PM 21.87 71.366 8.22 13 -5
5/21/2022 7:15:00 PM 21.87 71.366 8.23 13.18 -5
5/21/2022 7:30:00 PM 21.87 71.366 8.24 12.88 -5
5/21/2022 7:45:00 PM 21.76 71.168 8.23 12.88 -5
5/21/2022 8:00:00 PM 21.87 71.366 8.24 12.83 -5
5/21/2022 8:15:00 PM 21.87 71.366 8.24 12.94 -5
5/21/2022 8:30:00 PM 21.73 71.114 8.23 12.82 -5
5/21/2022 8:45:00 PM 21.87 71.366 8.23 12.75 -5
5/21/2022 9:00:00 PM 22.11 71.798 8.23 12.48 -5
5/21/2022 9:15:00 PM 21.99 71.582 8.2 12.86 -5
5/21/2022 9:30:00 PM 21.87 71.366 8.19 13.19 -5
5/21/2022 9:45:00 PM 21.87 71.366 8.2 13.06 -5
5/21/2022 10:00:00 PM 21.87 71.366 8.19 12.63 -5
5/21/2022 10:15:00 PM 21.87 71.366 8.18 12.75 -5
5/21/2022 10:30:00 PM 22.11 71.798 8.16 12.62 -5
5/21/2022 10:45:00 PM 22.11 71.798 8.16 12.61 -5
5/21/2022 11:00:00 PM 21.99 71.582 8.15 12.54 -5
5/21/2022 11:15:00 PM 21.99 71.582 8.14 12.72 -5
5/21/2022 11:30:00 PM 21.99 71.582 8.13 12.43 -5
5/21/2022 11:45:00 PM 21.99 71.582 8.12 12.43 -5
5/22/2022 12:00:00 AM 22.36 72.248 8.1 12.51 -5
5/22/2022 12:15:00 AM 22.11 71.798 8.09 12.69 -5
5/22/2022 12:30:00 AM 22.07 71.726 8.09 12.2 -5
5/22/2022 12:45:00 AM 21.99 71.582 8.08 11.83 -5
5/22/2022 1:00:00 AM 22.37 72.266 8.06 12.83 -5
5/22/2022 1:15:00 AM 22.11 71.798 8.04 11.83 -5
5/22/2022 1:30:00 AM 22.11 71.798 8.02 11.86 -5
5/22/2022 1:45:00 AM 22.11 71.798 8.01 11.96 -5
5/22/2022 2:00:00 AM 21.99 71.582 7.96 12.84 -5
5/22/2022 2:15:00 AM 22.25 72.05 7.94 13.27 -5
5/22/2022 2:30:00 AM 22.11 71.798 7.95 12.81 -5
5/22/2022 2:45:00 AM 21.87 71.366 7.92 12.84 -5
5/22/2022 3:00:00 AM 22.25 72.05 7.91 13.01 -5
5/22/2022 3:15:00 AM 21.99 71.582 7.89 13.06 -5
5/22/2022 3:30:00 AM 21.87 71.366 7.87 12.99 -5
5/22/2022 3:45:00 AM 22.11 71.798 7.84 13.05 -5
5/22/2022 4:00:00 AM 21.87 71.366 7.83 13.06 -5
5/22/2022 4:15:00 AM 21.73 71.114 7.81 13.25 -5
5/22/2022 4:30:00 AM 21.99 71.582 7.81 13.04 -5
5/22/2022 4:45:00 AM 21.73 71.114 7.8 12.93 -5
5/22/2022 5:00:00 AM 21.62 70.916 7.79 12.83 -5
5/22/2022 5:15:00 AM 21.99 71.582 7.76 12.76 -5
5/22/2022 5:30:00 AM 21.62 70.916 7.76 12.89 -5
5/22/2022 5:45:00 AM 21.73 71.114 7.74 13.09 -5
5/22/2022 6:00:00 AM 21.73 71.114 7.72 13.05 -5
5/22/2022 6:15:00 AM 21.5 70.7 7.69 13.26 -5
5/22/2022 6:30:00 AM 21.73 71.114 7.69 13.05 -5
5/22/2022 6:45:00 AM 21.5 70.7 7.67 12.98 -5
5/22/2022 7:00:00 AM 21.62 70.916 7.66 12.6 -5
5/22/2022 7:15:00 AM 21.5 70.7 7.66 12.68 -5
5/22/2022 7:30:00 AM 21.36 70.448 7.64 12.82 -5
5/22/2022 7:45:00 AM 21.5 70.7 7.64 12.84 -5
5/22/2022 8:00:00 AM 21.24 70.232 7.63 12.98 -5
5/22/2022 8:15:00 AM 21.5 70.7 7.62 12.82 -5
5/22/2022 8:30:00 AM 21.25 70.25 7.64 12.87 -5
5/22/2022 8:45:00 AM 21.5 70.7 7.64 12.82 -5
5/22/2022 9:00:00 AM 21.36 70.448 7.65 12.99 -5
5/22/2022 9:15:00 AM 21.36 70.448 7.65 13.11 -5
5/22/2022 9:30:00 AM 21.5 70.7 7.66 13.15 -5
5/22/2022 9:45:00 AM 21.24 70.232 7.66 13.01 -5
5/22/2022 10:00:00 AM 21.5 70.7 7.67 13 -5
5/22/2022 10:15:00 AM 21.24 70.232 7.67 13.05 -5
5/22/2022 10:30:00 AM 21.5 70.7 7.69 13.1 -5
5/22/2022 10:45:00 AM 21.5 70.7 7.7 13.12 -5
5/22/2022 11:00:00 AM 21.5 70.7 7.71 13.27 -5
5/22/2022 11:15:00 AM 21.87 71.366 7.73 13.29 -5
5/22/2022 11:30:00 AM 21.62 70.916 7.75 13.3 -5
5/22/2022 11:45:00 AM 21.87 71.366 7.78 13.36 -5
5/22/2022 12:00:00 PM 21.99 71.582 7.8 13.43 -5
5/22/2022 12:15:00 PM 21.87 71.366 7.8 13.48 -5
5/22/2022 12:30:00 PM 22.25 72.05 7.83 13.49 -5
5/22/2022 12:45:00 PM 22.11 71.798 7.84 13.34 -5
5/22/2022 1:00:00 PM 22.11 71.798 7.86 13.36 -5
5/22/2022 1:15:00 PM 22.49 72.482 7.88 13.55 -5
5/22/2022 1:30:00 PM 22.36 72.248 7.9 13.76 -5
5/22/2022 1:45:00 PM 22.36 72.248 7.92 13.65 -5
5/22/2022 2:00:00 PM 22.75 72.95 7.94 13.8 -5
5/22/2022 2:15:00 PM 22.63 72.734 7.94 13.66 -5
5/22/2022 2:30:00 PM 22.63 72.734 7.97 13.73 -5
5/22/2022 2:45:00 PM 22.75 72.95 7.97 13.74 -5
5/22/2022 3:00:00 PM 23.13 73.634 7.99 13.86 -5
5/22/2022 3:15:00 PM 22.87 73.166 7.99 13.87 -5
5/22/2022 3:30:00 PM 22.75 72.95 7.98 13.99 -5
5/22/2022 3:45:00 PM 22.75 72.95 7.98 14.18 -5
5/22/2022 4:00:00 PM 23 73.4 7.97 14.32 -5
5/22/2022 4:15:00 PM 22.75 72.95 7.96 15.4 -5
5/22/2022 4:30:00 PM 22.75 72.95 7.98 14.67 -5
5/22/2022 4:45:00 PM 23 73.4 8 14.02 -5
5/22/2022 5:00:00 PM 22.86 73.148 7.99 15.24 -5
5/22/2022 5:15:00 PM 22.86 73.148 8.02 14.7 -5
5/22/2022 5:30:00 PM 23.13 73.634 8.04 14.53 -5
5/22/2022 5:45:00 PM 23 73.4 8.05 14.43 -5
5/22/2022 6:00:00 PM 22.86 73.148 8.06 14.58 -5
5/22/2022 6:15:00 PM 23 73.4 8.06 14.44 -5
5/22/2022 6:30:00 PM 23.13 73.634 8.06 14.93 -5
5/22/2022 6:45:00 PM 23 73.4 8.06 15.19 -5
5/22/2022 7:00:00 PM 22.86 73.148 8.05 15.79 -5
5/22/2022 7:15:00 PM 23.13 73.634 8.04 16 -5
5/22/2022 7:30:00 PM 23.13 73.634 8.06 15.46 -5
5/22/2022 7:45:00 PM 22.99 73.382 8.05 15.16 -5
5/22/2022 8:00:00 PM 23 73.4 8.04 15.15 -5
5/22/2022 8:15:00 PM 23 73.4 8.04 15.15 -5
5/22/2022 8:30:00 PM 23 73.4 8.04 15.09 -5
5/22/2022 8:45:00 PM 23.24 73.832 8.02 15.3 -5
5/22/2022 9:00:00 PM 23 73.4 8.01 15.05 -5
5/22/2022 9:15:00 PM 23 73.4 8.01 14.97 -5
5/22/2022 9:30:00 PM 23 73.4 7.98 15.02 -5
5/22/2022 9:45:00 PM 23.13 73.634 7.96 14.98 -5
5/22/2022 10:00:00 PM 22.87 73.166 7.94 15.02 -5
5/22/2022 10:15:00 PM 22.75 72.95 7.93 14.85 -5
5/22/2022 10:30:00 PM 22.75 72.95 7.9 14.92 -5
5/22/2022 10:45:00 PM 22.75 72.95 7.9 14.4 -5
5/22/2022 11:00:00 PM 23.13 73.634 7.9 14.4 -5
5/22/2022 11:15:00 PM 22.75 72.95 7.88 14.39 -5
5/22/2022 11:30:00 PM 22.63 72.734 7.86 14.34 -5
5/22/2022 11:45:00 PM 22.86 73.148 7.85 14.58 -5
5/23/2022 12:00:00 AM 22.86 73.148 7.85 14.64 -5
5/23/2022 12:15:00 AM 22.63 72.734 7.8 14.31 -5
5/23/2022 12:30:00 AM 23 73.4 7.8 13.98 -5
5/23/2022 12:45:00 AM 22.75 72.95 7.76 13.96 -5
5/23/2022 1:00:00 AM 22.63 72.734 7.75 14.01 -5
5/23/2022 1:15:00 AM 22.86 73.148 7.76 14.02 -5
5/23/2022 1:30:00 AM 22.63 72.734 7.72 14.04 -5
5/23/2022 1:45:00 AM 22.62 72.716 7.7 13.75 -5
5/23/2022 2:00:00 AM 22.75 72.95 7.72 13.96 -5
5/23/2022 2:15:00 AM 22.36 72.248 7.68 13.81 -5
5/23/2022 2:30:00 AM 22.63 72.734 7.67 13.9 -5
5/23/2022 2:45:00 AM 22.36 72.248 7.59 13.53 -5
5/23/2022 3:00:00 AM 22.36 72.248 7.6 13.95 -5
5/23/2022 3:15:00 AM 22.36 72.248 7.61 13.82 -5
5/23/2022 3:30:00 AM 22.25 72.05 7.59 13.86 -5
5/23/2022 3:45:00 AM 22.36 72.248 7.6 14.85 -5
5/23/2022 4:00:00 AM 21.99 71.582 7.63 14.7 -5
5/23/2022 4:15:00 AM 22.25 72.05 7.6 14.49 -5
5/23/2022 4:30:00 AM 21.99 71.582 7.64 14.45 -5
5/23/2022 4:45:00 AM 21.87 71.366 7.63 14.41 -5
5/23/2022 5:00:00 AM 22.11 71.798 7.59 14.48 -5
5/23/2022 5:15:00 AM 21.73 71.114 7.62 14.5 -5
5/23/2022 5:30:00 AM 21.99 71.582 7.61 14.28 -5
5/23/2022 5:45:00 AM 21.73 71.114 7.58 14.46 -5
5/23/2022 6:00:00 AM 21.73 71.114 7.52 14.79 -5
5/23/2022 6:15:00 AM 21.73 71.114 7.55 14.47 -5
5/23/2022 6:30:00 AM 21.5 70.7 7.53 14.45 -5
5/23/2022 6:45:00 AM 21.73 71.114 7.54 14.52 -5
5/23/2022 7:00:00 AM 21.36 70.448 7.53 14.37 -5
5/23/2022 7:15:00 AM 21.62 70.916 7.54 13.44 -5
5/23/2022 7:30:00 AM 21.36 70.448 7.54 13.42 -5
5/23/2022 7:45:00 AM 21.36 70.448 7.51 13.44 -5
5/23/2022 8:00:00 AM 21.5 70.7 7.5 12.94 -5
5/23/2022 8:15:00 AM 21.24 70.232 7.5 12.68 -5
5/23/2022 8:30:00 AM 21.36 70.448 7.51 12.73 -5
5/23/2022 8:45:00 AM 20.98 69.764 7.49 13.31 -5
5/23/2022 9:00:00 AM 21.24 70.232 7.52 14.61 -5
5/23/2022 9:15:00 AM 21.12 70.016 7.53 14.26 -5
5/23/2022 9:30:00 AM 21.24 70.232 7.54 14.22 -5
5/23/2022 9:45:00 AM 21.24 70.232 7.54 14.17 -5
5/23/2022 10:00:00 AM 21.11 69.998 7.57 14.52 -5
5/23/2022 10:15:00 AM 21.36 70.448 7.58 14.42 -5
5/23/2022 10:30:00 AM 20.98 69.764 7.59 14.3 -5
5/23/2022 10:45:00 AM 21.36 70.448 7.61 14.34 -5
5/23/2022 11:00:00 AM 20.98 69.764 7.63 14.52 -5
5/23/2022 11:15:00 AM 21.36 70.448 7.64 14.35 -5
5/23/2022 11:30:00 AM 21.24 70.232 7.67 14.48 -5
5/23/2022 11:45:00 AM 21.5 70.7 7.67 14.54 -5
5/23/2022 12:00:00 PM 21.36 70.448 7.67 14.95 -5
5/23/2022 12:15:00 PM 21.5 70.7 7.71 14.94 -5
5/23/2022 12:30:00 PM 21.62 70.916 7.74 15.07 -5
5/23/2022 12:45:00 PM 21.5 70.7 7.76 14.74 -5
5/23/2022 1:00:00 PM 21.73 71.114 7.77 14.94 -5
5/23/2022 1:15:00 PM 21.36 70.448 7.79 14.83 -5
5/23/2022 1:30:00 PM 21.87 71.366 7.82 14.95 -5
5/23/2022 1:45:00 PM 21.36 70.448 7.84 14.96 -5
5/23/2022 2:00:00 PM 21.87 71.366 7.86 15.16 -5
5/23/2022 2:15:00 PM 21.5 70.7 7.87 15.27 -5
5/23/2022 2:30:00 PM 21.73 71.114 7.91 15.36 -5
5/23/2022 2:45:00 PM 21.62 70.916 7.91 15.28 -5
5/23/2022 3:00:00 PM 21.73 71.114 7.93 15.43 -5
5/23/2022 3:15:00 PM 21.62 70.916 7.94 15.37 -5
5/23/2022 3:30:00 PM 21.73 71.114 7.96 15.31 -5
5/23/2022 3:45:00 PM 21.62 70.916 7.99 15.22 -5
5/23/2022 4:00:00 PM 21.62 70.916 8 15.48 -5
5/23/2022 4:15:00 PM 21.62 70.916 8 15.56 -5
5/23/2022 4:30:00 PM 21.62 70.916 8.03 15.41 -5
5/23/2022 4:45:00 PM 21.73 71.114 8.04 15.55 -5
5/23/2022 5:00:00 PM 21.5 70.7 8.06 15.72 -5
5/23/2022 5:15:00 PM 21.73 71.114 8.07 15.72 -5
5/23/2022 5:30:00 PM 21.5 70.7 8.08 15.39 -5
5/23/2022 5:45:00 PM 21.73 71.114 8.09 15.31 -5
5/23/2022 6:00:00 PM 21.5 70.7 8.1 15.21 -5
5/23/2022 6:15:00 PM 21.73 71.114 8.13 15.21 -5
5/23/2022 6:30:00 PM 21.36 70.448 8.13 15.41 -5
5/23/2022 6:45:00 PM 21.73 71.114 8.14 15.42 -5
5/23/2022 7:00:00 PM 21.36 70.448 8.12 15.39 -5
5/23/2022 7:15:00 PM 21.62 70.916 8.14 15.57 -5
5/23/2022 7:30:00 PM 21.36 70.448 8.15 15.77 -5
5/23/2022 7:45:00 PM 21.5 70.7 8.15 15.73 -5
5/23/2022 8:00:00 PM 21.36 70.448 8.16 15.74 -5
5/23/2022 8:15:00 PM 21.36 70.448 8.17 15.58 -5
5/23/2022 8:30:00 PM 21.5 70.7 8.18 15.26 -5
5/23/2022 8:45:00 PM 21.24 70.232 8.17 15.17 -5
5/23/2022 9:00:00 PM 21.62 70.916 8.17 15.36 -5
5/23/2022 9:15:00 PM 21.24 70.232 8.18 15.04 -5
5/23/2022 9:30:00 PM 21.62 70.916 8.08 15.42 -5
5/23/2022 9:45:00 PM 21.36 70.448 8.06 15.7 -5
5/23/2022 10:00:00 PM 21.5 70.7 7.99 15.77 -5
5/23/2022 10:15:00 PM 21.5 70.7 8.06 15.48 -5
5/23/2022 10:30:00 PM 21.24 70.232 8.04 15.41 -5
5/23/2022 10:45:00 PM 21.62 70.916 8.04 15.38 -5
5/23/2022 11:00:00 PM 21.24 70.232 8.02 15.44 -5
5/23/2022 11:15:00 PM 21.62 70.916 8.02 15.32 -5
5/23/2022 11:30:00 PM 21.36 70.448 8.03 15.34 -5
5/23/2022 11:45:00 PM 21.5 70.7 8.01 15.35 -5
5/24/2022 12:00:00 AM 21.4 70.52 8.01 15.65 -5
5/24/2022 12:15:00 AM 21.24 70.232 8 15.35 -5
5/24/2022 12:30:00 AM 21.5 70.7 8 15.32 -5
5/24/2022 12:45:00 AM 21.11 69.998 7.98 15.29 -5
5/24/2022 1:00:00 AM 21.5 70.7 7.98 15.52 -5
5/24/2022 1:15:00 AM 21.12 70.016 7.95 15.27 -5
5/24/2022 1:30:00 AM 21.24 70.232 7.95 15.3 -5
5/24/2022 1:45:00 AM 21.36 70.448 7.94 15.21 -5
5/24/2022 2:00:00 AM 21.11 69.998 7.9 15.4 -5
5/24/2022 2:15:00 AM 21.36 70.448 7.9 15.22 -5
5/24/2022 2:30:00 AM 20.98 69.764 7.88 15.23 -5
5/24/2022 2:45:00 AM 21.36 70.448 7.81 15.05 -5
5/24/2022 3:00:00 AM 20.98 69.764 7.8 14.6 -5
5/24/2022 3:15:00 AM 21.11 69.998 7.82 14.75 -5
5/24/2022 3:30:00 AM 21.11 69.998 7.76 15.32 -5
5/24/2022 3:45:00 AM 20.87 69.566 7.77 15.21 -5
5/24/2022 4:00:00 AM 21.25 70.25 7.75 15.69 -5
5/24/2022 4:15:00 AM 20.74 69.332 7.74 15.37 -5
5/24/2022 4:30:00 AM 21.11 69.998 7.69 15.4 -5
5/24/2022 4:45:00 AM 20.74 69.332 7.66 15.33 -5
5/24/2022 5:00:00 AM 20.87 69.566 7.61 15.47 -5
5/24/2022 5:15:00 AM 20.87 69.566 7.6 15.1 -5
5/24/2022 5:30:00 AM 20.61 69.098 7.61 15.22 -5
5/24/2022 5:45:00 AM 20.98 69.764 7.56 15.26 -5
5/24/2022 6:00:00 AM 20.48 68.864 7.56 15.31 -5
5/24/2022 6:15:00 AM 20.74 69.332 7.53 15.33 -5
5/24/2022 6:30:00 AM 20.61 69.098 7.51 15.17 -5
5/24/2022 6:45:00 AM 20.6 69.08 7.49 15.16 -5
5/24/2022 7:00:00 AM 20.61 69.098 7.45 15.27 -5
5/24/2022 7:15:00 AM 20.37 68.666 7.43 15.1 -5
5/24/2022 7:30:00 AM 20.6 69.08 7.49 11.71 -5
5/24/2022 7:45:00 AM 20.23 68.414 7.51 11.83 -5
5/24/2022 8:00:00 AM 20.48 68.864 7.51 11.71 -5
5/24/2022 8:15:00 AM 20.23 68.414 7.51 11.85 -5
5/24/2022 8:30:00 AM 20.36 68.648 7.51 12.14 -5
5/24/2022 8:45:00 AM 20.36 68.648 7.52 12.14 -5
5/24/2022 9:00:00 AM 20.23 68.414 7.5 12.01 -5
5/24/2022 9:15:00 AM 20.48 68.864 7.51 12.38 -5
5/24/2022 9:30:00 AM 20.1 68.18 7.53 12.41 -5
5/24/2022 9:45:00 AM 20.48 68.864 7.54 12.52 -5
5/24/2022 10:00:00 AM 20.11 68.198 7.56 12.33 -5
5/24/2022 10:15:00 AM 20.48 68.864 7.59 12.4 -5
5/24/2022 10:30:00 AM 20.23 68.414 7.6 12.47 -5
5/24/2022 10:45:00 AM 20.36 68.648 7.63 12.56 -5
5/24/2022 11:00:00 AM 20.36 68.648 7.62 12.51 -5
5/24/2022 11:15:00 AM 20.36 68.648 7.65 12.67 -5
5/24/2022 11:30:00 AM 20.48 68.864 7.66 12.62 -5
5/24/2022 11:45:00 AM 20.23 68.414 7.67 12.88 -5
5/24/2022 12:00:00 PM 20.48 68.864 7.67 12.81 -5
5/24/2022 12:15:00 PM 20.11 68.198 7.7 12.9 -5
5/24/2022 12:30:00 PM 20.48 68.864 7.71 12.9 -5
5/24/2022 12:45:00 PM 20.23 68.414 7.72 12.92 -5
5/24/2022 1:00:00 PM 20.37 68.666 7.72 12.93 -5
5/24/2022 1:15:00 PM 20.23 68.414 7.74 13.09 -5
5/24/2022 1:30:00 PM 20.23 68.414 7.73 13.08 -5
5/24/2022 1:45:00 PM 20.36 68.648 7.73 13.11 -5
5/24/2022 2:00:00 PM 20.11 68.198 7.72 12.98 -5
5/24/2022 2:15:00 PM 20.36 68.648 7.71 13.07 -5
5/24/2022 2:30:00 PM 20.11 68.198 7.73 13.19 -5
5/24/2022 2:45:00 PM 20.36 68.648 7.73 13.43 -5
5/24/2022 3:00:00 PM 19.99 67.982 7.74 13.33 -5
5/24/2022 3:15:00 PM 20.23 68.414 7.76 13.44 -5
5/24/2022 3:30:00 PM 20.11 68.198 7.76 13.31 -5
5/24/2022 3:45:00 PM 20.23 68.414 7.78 13.53 -5
5/24/2022 4:00:00 PM 20.23 68.414 7.77 13.51 -5
5/24/2022 4:15:00 PM 20.11 68.198 7.76 13.48 -5
5/24/2022 4:30:00 PM 20.36 68.648 7.8 13.48 -5
5/24/2022 4:45:00 PM 19.99 67.982 7.81 13.64 -5
5/24/2022 5:00:00 PM 20.23 68.414 7.8 13.53 -5
5/24/2022 5:15:00 PM 20.11 68.198 7.83 13.79 -5
5/24/2022 5:30:00 PM 20.23 68.414 7.82 14.09 -5
5/24/2022 5:45:00 PM 20.23 68.414 7.85 13.73 -5
5/24/2022 6:00:00 PM 20.1 68.18 7.87 13.71 -5
5/24/2022 6:15:00 PM 20.36 68.648 7.9 13.82 -5
5/24/2022 6:30:00 PM 19.99 67.982 7.94 13.84 -5
5/24/2022 6:45:00 PM 20.36 68.648 7.97 13.89 -5
5/24/2022 7:00:00 PM 20.11 68.198 7.97 13.58 -5
5/24/2022 7:15:00 PM 20.23 68.414 7.98 13.55 -5
5/24/2022 7:30:00 PM 20.23 68.414 7.95 13.46 -5
5/24/2022 7:45:00 PM 20.22 68.396 7.95 13.42 -5
5/24/2022 8:00:00 PM 20.36 68.648 7.98 13.61 -5
5/24/2022 8:15:00 PM 19.99 67.982 7.99 13.16 -5
5/24/2022 8:30:00 PM 20.23 68.414 7.97 13.53 -5
5/24/2022 8:45:00 PM 19.99 67.982 7.97 13.5 -5
5/24/2022 9:00:00 PM 20.11 68.198 7.96 13.34 -5
5/24/2022 9:15:00 PM 20.1 68.18 7.91 13.34 -5
5/24/2022 9:30:00 PM 19.99 67.982 7.89 13.71 -5
5/24/2022 9:45:00 PM 20.23 68.414 7.87 13.85 -5
5/24/2022 10:00:00 PM 19.84 67.712 7.89 13.81 -5
5/24/2022 10:15:00 PM 20.23 68.414 7.9 13.55 -5
5/24/2022 10:30:00 PM 19.84 67.712 7.89 13.42 -5
5/24/2022 10:45:00 PM 20.1 68.18 7.89 13.54 -5
5/24/2022 11:00:00 PM 19.99 67.982 7.89 13.39 -5
5/24/2022 11:15:00 PM 19.99 67.982 7.87 13.3 -5
5/24/2022 11:30:00 PM 20.11 68.198 7.87 13.4 -5
5/24/2022 11:45:00 PM 19.84 67.712 7.83 13.33 -5
5/25/2022 12:00:00 AM 20.23 68.414 7.85 13.48 -5
5/25/2022 12:15:00 AM 19.84 67.712 7.83 13.24 -5
5/25/2022 12:30:00 AM 20.11 68.198 7.83 13.35 -5
5/25/2022 12:45:00 AM 19.99 67.982 7.79 13.24 -5
5/25/2022 1:00:00 AM 19.99 67.982 7.77 13.33 -5
5/25/2022 1:15:00 AM 20.11 68.198 7.79 12.82 -5
5/25/2022 1:30:00 AM 19.84 67.712 7.79 12.92 -5
5/25/2022 1:45:00 AM 20.11 68.198 7.74 12.95 -5
5/25/2022 2:00:00 AM 19.84 67.712 7.72 12.79 -5
5/25/2022 2:15:00 AM 19.99 67.982 7.66 13.52 -5
5/25/2022 2:30:00 AM 19.99 67.982 7.66 13.41 -5
5/25/2022 2:45:00 AM 19.84 67.712 7.66 13.71 -5
5/25/2022 3:00:00 AM 20.11 68.198 7.65 13.32 -5
5/25/2022 3:15:00 AM 19.62 67.316 7.64 13.24 -5
5/25/2022 3:30:00 AM 19.99 67.982 7.62 13.18 -5
5/25/2022 3:45:00 AM 19.73 67.514 7.6 13.22 -5
5/25/2022 4:00:00 AM 19.73 67.514 7.6 12.53 -5
5/25/2022 4:15:00 AM 19.84 67.712 7.57 12.53 -5
5/25/2022 4:30:00 AM 19.62 67.316 7.56 12.49 -5
5/25/2022 4:45:00 AM 19.84 67.712 7.55 12.77 -5
5/25/2022 5:00:00 AM 19.47 67.046 7.53 12.63 -5
5/25/2022 5:15:00 AM 19.62 67.316 7.49 13.58 -5
5/25/2022 5:30:00 AM 19.73 67.514 7.48 13.54 -5
5/25/2022 5:45:00 AM 19.62 67.316 7.47 13.66 -5
5/25/2022 6:00:00 AM 19.84 67.712 7.47 13.47 -5
5/25/2022 6:15:00 AM 19.36 66.848 7.45 13.5 -5
5/25/2022 6:30:00 AM 19.73 67.514 7.46 13.2 -5
5/25/2022 6:45:00 AM 19.47 67.046 7.43 13.33 -5
5/25/2022 7:00:00 AM 19.47 67.046 7.43 13.17 -5
5/25/2022 7:15:00 AM 19.73 67.514 7.42 13.03 -5
5/25/2022 7:30:00 AM 19.36 66.848 7.35 10.8 -5
5/25/2022 7:45:00 AM 19.62 67.316 7.37 11.04 -5
5/25/2022 8:00:00 AM 19.36 66.848 7.4 10.95 -5
5/25/2022 8:15:00 AM 19.47 67.046 7.39 10.81 -5
5/25/2022 8:30:00 AM 19.62 67.316 7.4 10.94 -5
5/25/2022 8:45:00 AM 19.36 66.848 7.39 11.15 -5
5/25/2022 9:00:00 AM 19.62 67.316 7.41 11.05 -5
5/25/2022 9:15:00 AM 19.23 66.614 7.42 11.26 -5
5/25/2022 9:30:00 AM 19.62 67.316 7.41 11.25 -5
5/25/2022 9:45:00 AM 19.36 66.848 7.41 11.44 -5
5/25/2022 10:00:00 AM 19.62 67.316 7.43 11.37 -5
5/25/2022 10:15:00 AM 19.47 67.046 7.45 11.85 -5
5/25/2022 10:30:00 AM 19.47 67.046 7.45 11.77 -5
5/25/2022 10:45:00 AM 19.73 67.514 7.46 11.87 -5
5/25/2022 11:00:00 AM 19.47 67.046 7.46 11.83 -5
5/25/2022 11:15:00 AM 19.84 67.712 7.48 11.85 -5
5/25/2022 11:30:00 AM 19.47 67.046 7.51 11.94 -5
5/25/2022 11:45:00 AM 19.84 67.712 7.52 12.03 -5
5/25/2022 12:00:00 PM 19.62 67.316 7.56 11.94 -5
5/25/2022 12:15:00 PM 19.99 67.982 7.58 12.05 -5
5/25/2022 12:30:00 PM 19.84 67.712 7.58 12.16 -5
5/25/2022 12:45:00 PM 19.99 67.982 7.6 12.28 -5
5/25/2022 1:00:00 PM 19.84 67.712 7.62 11.61 -5
5/25/2022 1:15:00 PM 19.84 67.712 7.53 10.61 -5
5/25/2022 1:30:00 PM 19.84 67.712 7.41 9.37 -5
5/25/2022 1:45:00 PM 20.1 68.18 7.58 12.12 -5
5/25/2022 2:00:00 PM 20.37 68.666 7.67 12.81 -5
5/25/2022 2:15:00 PM 20.17 68.306 7.72 12.66 -5
5/25/2022 2:30:00 PM 20.48 68.864 7.74 12.49 -5
5/25/2022 2:45:00 PM 20.23 68.414 7.77 12.44 -5
5/25/2022 3:00:00 PM 20.61 69.098 7.77 13.07 -5
5/25/2022 3:15:00 PM 20.36 68.648 7.81 13.08 -5
5/25/2022 3:30:00 PM 20.74 69.332 7.86 12.92 -5
5/25/2022 3:45:00 PM 20.48 68.864 7.89 12.91 -5
5/25/2022 4:00:00 PM 20.87 69.566 7.93 12.91 -5
5/25/2022 4:15:00 PM 20.6 69.08 7.93 13.08 -5
5/25/2022 4:30:00 PM 20.86 69.548 7.94 13.07 -5
5/25/2022 4:45:00 PM 20.74 69.332 7.98 13.09 -5
5/25/2022 5:00:00 PM 20.98 69.764 8 13.04 -5
5/25/2022 5:15:00 PM 20.86 69.548 8.02 12.65 -5
5/25/2022 5:30:00 PM 20.98 69.764 8.02 12.72 -5
5/25/2022 5:45:00 PM 20.98 69.764 8.04 12.81 -5
5/25/2022 6:00:00 PM 20.98 69.764 8.05 12.76 -5
5/25/2022 6:15:00 PM 21.11 69.998 8.03 12.63 -5
5/25/2022 6:30:00 PM 20.86 69.548 8.05 12.95 -5
5/25/2022 6:45:00 PM 21.11 69.998 8.08 12.91 -5
5/25/2022 7:00:00 PM 20.86 69.548 8.07 12.93 -5
5/25/2022 7:15:00 PM 21.25 70.25 8.09 12.99 -5
5/25/2022 7:30:00 PM 20.74 69.332 8.09 13.05 -5
5/25/2022 7:45:00 PM 21.11 69.998 8.09 13.01 -5
5/25/2022 8:00:00 PM 20.87 69.566 8.08 12.87 -5
5/25/2022 8:15:00 PM 20.98 69.764 8.07 13.02 -5
5/25/2022 8:30:00 PM 20.86 69.548 8.08 13.05 -5
5/25/2022 8:45:00 PM 20.86 69.548 8.04 13.59 -5
5/25/2022 9:00:00 PM 20.98 69.764 8.02 13.68 -5
5/25/2022 9:15:00 PM 20.87 69.566 8.03 13.64 -5
5/25/2022 9:30:00 PM 20.98 69.764 8.06 13.39 -5
5/25/2022 9:45:00 PM 20.74 69.332 8.04 13.21 -5
5/25/2022 10:00:00 PM 20.98 69.764 8.03 13.38 -5
5/25/2022 10:15:00 PM 20.61 69.098 8.02 13.33 -5
5/25/2022 10:30:00 PM 20.98 69.764 7.95 13.19 -5
5/25/2022 10:45:00 PM 20.74 69.332 7.97 13.16 -5
5/25/2022 11:00:00 PM 20.86 69.548 7.97 13.04 -5
5/25/2022 11:15:00 PM 20.86 69.548 7.93 13.29 -5
5/25/2022 11:30:00 PM 20.6 69.08 7.92 13.02 -5
5/25/2022 11:45:00 PM 20.86 69.548 7.93 12.96 -5
5/26/2022 12:00:00 AM 20.48 68.864 7.91 12.94 -5
5/26/2022 12:15:00 AM 20.87 69.566 7.89 12.93 -5
5/26/2022 12:30:00 AM 20.6 69.08 7.9 12.86 -5
5/26/2022 12:45:00 AM 20.74 69.332 7.88 12.96 -5
5/26/2022 1:00:00 AM 20.73 69.314 7.86 12.96 -5
5/26/2022 1:15:00 AM 20.61 69.098 7.82 13.03 -5
5/26/2022 1:30:00 AM 20.74 69.332 7.83 12.9 -5
5/26/2022 1:45:00 AM 20.36 68.648 7.8 12.98 -5
5/26/2022 2:00:00 AM 20.74 69.332 7.77 13.01 -5
5/26/2022 2:15:00 AM 20.36 68.648 7.75 13.01 -5
5/26/2022 2:30:00 AM 20.61 69.098 7.76 13.07 -5
5/26/2022 2:45:00 AM 20.48 68.864 7.68 12.9 -5
5/26/2022 3:00:00 AM 20.48 68.864 7.63 12.96 -5
5/26/2022 3:15:00 AM 20.48 68.864 7.67 13.07 -5
5/26/2022 3:30:00 AM 20.36 68.648 7.68 12.85 -5
5/26/2022 3:45:00 AM 20.48 68.864 7.64 13.1 -5
5/26/2022 4:00:00 AM 20.11 68.198 7.57 13.05 -5
5/26/2022 4:15:00 AM 20.48 68.864 7.57 13.17 -5
5/26/2022 4:30:00 AM 20.1 68.18 7.57 13.06 -5
5/26/2022 4:45:00 AM 20.23 68.414 7.6 12.5 -5
5/26/2022 5:00:00 AM 20.23 68.414 7.51 12.63 -5
5/26/2022 5:15:00 AM 19.99 67.982 7.51 13.56 -5
5/26/2022 5:30:00 AM 20.23 68.414 7.47 13.33 -5
5/26/2022 5:45:00 AM 19.84 67.712 7.49 13.36 -5
5/26/2022 6:00:00 AM 20.23 68.414 7.45 13.36 -5
5/26/2022 6:15:00 AM 19.84 67.712 7.42 13.41 -5
5/26/2022 6:30:00 AM 19.99 67.982 7.47 13.3 -5
5/26/2022 6:45:00 AM 19.84 67.712 7.52 12.74 -5
5/26/2022 7:00:00 AM 19.84 67.712 7.54 12.25 -5
5/26/2022 7:15:00 AM 19.84 67.712 7.54 12.04 -5
5/26/2022 7:30:00 AM 19.62 67.316 7.54 12.22 -5
5/26/2022 7:45:00 AM 19.84 67.712 7.54 12.19 -5
5/26/2022 8:00:00 AM 19.47 67.046 7.55 12.36 -5
5/26/2022 8:15:00 AM 19.84 67.712 7.55 12.35 -5
5/26/2022 8:30:00 AM 19.47 67.046 7.53 12.26 -5
5/26/2022 8:45:00 AM 19.73 67.514 7.54 12.27 -5
5/26/2022 9:00:00 AM 19.62 67.316 7.55 12.38 -5
5/26/2022 9:15:00 AM 19.64 67.352 7.55 12.25 -5
5/26/2022 9:30:00 AM 19.62 67.316 7.56 12.26 -5
5/26/2022 9:45:00 AM 19.47 67.046 7.55 12.31 -5
5/26/2022 10:00:00 AM 19.73 67.514 7.55 12.24 -5
5/26/2022 10:15:00 AM 19.47 67.046 7.55 12.2 -5
5/26/2022 10:30:00 AM 19.73 67.514 7.57 12.26 -5
5/26/2022 10:45:00 AM 19.36 66.848 7.56 12.37 -5
5/26/2022 11:00:00 AM 19.73 67.514 7.56 12.46 -5
5/26/2022 11:15:00 AM 19.36 66.848 7.56 12.25 -5
5/26/2022 11:30:00 AM 19.62 67.316 7.58 12.48 -5
5/26/2022 11:45:00 AM 19.47 67.046 7.59 12.27 -5
5/26/2022 12:00:00 PM 19.73 67.514 7.6 12.27 -5
5/26/2022 12:15:00 PM 19.73 67.514 7.6 11.69 -5
5/26/2022 12:30:00 PM 19.62 67.316 7.58 11.78 -5
5/26/2022 12:45:00 PM 19.84 67.712 7.59 11.95 -5
5/26/2022 1:00:00 PM 19.62 67.316 7.59 12.05 -5
5/26/2022 1:15:00 PM 19.84 67.712 7.6 12.14 -5
5/26/2022 1:30:00 PM 19.62 67.316 7.62 12.08 -5
5/26/2022 1:45:00 PM 19.84 67.712 7.62 12.15 -5
5/26/2022 2:00:00 PM 19.62 67.316 7.62 12.21 -5
5/26/2022 2:15:00 PM 19.84 67.712 7.61 12.39 -5
5/26/2022 2:30:00 PM 19.73 67.514 7.6 12.4 -5
5/26/2022 2:45:00 PM 19.84 67.712 7.65 12.47 -5
5/26/2022 3:00:00 PM 19.84 67.712 7.65 12.5 -5
5/26/2022 3:15:00 PM 19.84 67.712 7.65 12.36 -5
5/26/2022 3:30:00 PM 19.99 67.982 7.67 12.34 -5
5/26/2022 3:45:00 PM 19.84 67.712 7.67 12.36 -5
5/26/2022 4:00:00 PM 20.11 68.198 7.65 12.43 -5
5/26/2022 4:15:00 PM 19.77 67.586 7.69 12.42 -5
5/26/2022 4:30:00 PM 20.1 68.18 7.69 12.33 -5
5/26/2022 4:45:00 PM 19.73 67.514 7.67 12.37 -5
5/26/2022 5:00:00 PM 20.1 68.18 7.68 12.49 -5
5/26/2022 5:15:00 PM 19.84 67.712 7.64 12.33 -5
5/26/2022 5:30:00 PM 19.99 67.982 7.71 12.19 -5
5/26/2022 5:45:00 PM 19.99 67.982 7.72 12.36 -5
5/26/2022 6:00:00 PM 19.99 67.982 7.72 12.29 -5
5/26/2022 6:15:00 PM 20.11 68.198 7.71 12.29 -5
5/26/2022 6:30:00 PM 19.99 67.982 7.72 12.37 -5
5/26/2022 6:45:00 PM 20.23 68.414 7.7 12.84 -5
5/26/2022 7:00:00 PM 19.84 67.712 7.69 12.81 -5
5/26/2022 7:15:00 PM 20.23 68.414 7.68 12.93 -5
5/26/2022 7:30:00 PM 19.99 67.982 7.68 12.75 -5
5/26/2022 7:45:00 PM 20.11 68.198 7.74 12.75 -5
5/26/2022 8:00:00 PM 19.99 67.982 7.7 12.7 -5
5/26/2022 8:15:00 PM 19.99 67.982 7.67 13.17 -5
5/26/2022 8:30:00 PM 20.1 68.18 7.33 13.29 -5
5/26/2022 8:45:00 PM 19.84 67.712 7.05 13.1 -5
5/26/2022 9:00:00 PM 20.19 68.342 6.97 13.16 -5
5/26/2022 9:15:00 PM 19.73 67.514 6.91 12.9 -5
5/26/2022 9:30:00 PM 20.1 68.18 6.84 12.96 -5
5/26/2022 9:45:00 PM 19.99 67.982 6.8 12.89 -5
5/26/2022 10:00:00 PM 19.99 67.982 6.75 12.75 -5
5/26/2022 10:15:00 PM 20.11 68.198 6.75 12.72 -5
5/26/2022 10:30:00 PM 19.99 67.982 6.74 12.9 -5
5/26/2022 10:45:00 PM 20.23 68.414 6.73 12.86 -5
5/26/2022 11:00:00 PM 19.84 67.712 6.74 12.65 -5
5/26/2022 11:15:00 PM 20.23 68.414 6.79 12.6 -5
5/26/2022 11:30:00 PM 19.99 67.982 6.76 12.57 -5
5/26/2022 11:45:00 PM 20.11 68.198 6.76 12.27 -5
5/27/2022 12:00:00 AM 20.23 68.414 6.77 12.22 -5
5/27/2022 12:15:00 AM 19.84 67.712 6.81 12.2 -5
5/27/2022 12:30:00 AM 20.23 68.414 6.76 12.26 -5
5/27/2022 12:45:00 AM 19.84 67.712 6.75 12.22 -5
5/27/2022 1:00:00 AM 20.11 68.198 6.78 12.31 -5
5/27/2022 1:15:00 AM 19.99 67.982 6.79 12.18 -5
5/27/2022 1:30:00 AM 19.84 67.712 6.78 12.24 -5
5/27/2022 1:45:00 AM 20.11 68.198 6.75 12.28 -5
5/27/2022 2:00:00 AM 19.73 67.514 6.74 12.24 -5
5/27/2022 2:15:00 AM 20.11 68.198 6.76 12.17 -5
5/27/2022 2:30:00 AM 19.73 67.514 6.7 12.14 -5
5/27/2022 2:45:00 AM 19.84 67.712 6.68 12.2 -5
5/27/2022 3:00:00 AM 19.84 67.712 6.67 12.34 -5
5/27/2022 3:15:00 AM 19.73 67.514 6.66 12.08 -5
5/27/2022 3:30:00 AM 19.99 67.982 6.65 12.14 -5
5/27/2022 3:45:00 AM 19.73 67.514 6.64 12.11 -5
5/27/2022 4:00:00 AM 19.84 67.712 6.65 12.21 -5
5/27/2022 4:15:00 AM 19.73 67.514 6.66 12.18 -5
5/27/2022 4:30:00 AM 19.73 67.514 6.65 12.15 -5
5/27/2022 4:45:00 AM 19.84 67.712 6.66 12.12 -5
5/27/2022 5:00:00 AM 19.62 67.316 6.64 12.3 -5
5/27/2022 5:15:00 AM 19.84 67.712 6.63 12.3 -5
5/27/2022 5:30:00 AM 19.62 67.316 6.64 12.36 -5
5/27/2022 5:45:00 AM 19.73 67.514 6.64 12.34 -5
5/27/2022 6:00:00 AM 19.73 67.514 6.65 12.46 -5
5/27/2022 6:15:00 AM 19.62 67.316 6.65 12.4 -5
5/27/2022 6:30:00 AM 19.84 67.712 6.65 12.45 -5
5/27/2022 6:45:00 AM 19.47 67.046 6.64 12.48 -5
5/27/2022 7:00:00 AM 19.84 67.712 6.64 12.57 -5
5/27/2022 7:15:00 AM 19.62 67.316 6.76 10.78 -5
5/27/2022 7:30:00 AM 19.73 67.514 7.09 10.89 -5
5/27/2022 7:45:00 AM 19.73 67.514 7.16 10.98 -5
5/27/2022 8:00:00 AM 19.73 67.514 7.22 11.04 -5
5/27/2022 8:15:00 AM 19.73 67.514 7.26 10.52 -5
5/27/2022 8:30:00 AM 19.62 67.316 7.26 10.51 -5
5/27/2022 8:45:00 AM 19.84 67.712 7.3 10.71 -5
5/27/2022 9:00:00 AM 19.47 67.046 7.3 10.68 -5
5/27/2022 9:15:00 AM 19.73 67.514 7.3 10.79 -5
5/27/2022 9:30:00 AM 19.62 67.316 7.31 10.7 -5
5/27/2022 9:45:00 AM 19.73 67.514 7.33 10.76 -5
5/27/2022 10:00:00 AM 19.73 67.514 7.32 10.36 -5
5/27/2022 10:15:00 AM 19.73 67.514 7.34 10.55 -5
5/27/2022 10:30:00 AM 19.73 67.514 7.33 10.55 -5
5/27/2022 10:45:00 AM 19.62 67.316 7.35 10.46 -5
5/27/2022 11:00:00 AM 19.84 67.712 7.35 10.52 -5
5/27/2022 11:15:00 AM 19.47 67.046 7.35 10.59 -5
5/27/2022 11:30:00 AM 19.84 67.712 7.36 10.5 -5
5/27/2022 11:45:00 AM 19.62 67.316 7.36 10.66 -5
5/27/2022 12:00:00 PM 19.84 67.712 7.38 10.78 -5
5/27/2022 12:15:00 PM 19.73 67.514 7.39 10.7 -5
5/27/2022 12:30:00 PM 19.73 67.514 7.39 10.71 -5
5/27/2022 12:45:00 PM 19.99 67.982 7.41 10.83 -5
5/27/2022 1:00:00 PM 19.73 67.514 7.4 10.95 -5
5/27/2022 1:15:00 PM 19.99 67.982 7.41 11.13 -5
5/27/2022 1:30:00 PM 19.73 67.514 7.43 10.97 -5
5/27/2022 1:45:00 PM 19.99 67.982 7.44 11.11 -5
5/27/2022 2:00:00 PM 19.74 67.532 7.42 11.04 -5
5/27/2022 2:15:00 PM 19.84 67.712 7.42 11.07 -5
5/27/2022 2:30:00 PM 19.84 67.712 7.42 11.24 -5
5/27/2022 2:45:00 PM 19.84 67.712 7.42 11.38 -5
5/27/2022 3:00:00 PM 20.1 68.18 7.44 11.25 -5
5/27/2022 3:15:00 PM 19.84 67.712 7.47 11.32 -5
5/27/2022 3:30:00 PM 20.23 68.414 7.47 11.34 -5
5/27/2022 3:45:00 PM 19.85 67.73 7.47 11.41 -5
5/27/2022 4:00:00 PM 20.23 68.414 7.47 11.46 -5
5/27/2022 4:15:00 PM 19.99 67.982 7.49 11.44 -5
5/27/2022 4:30:00 PM 20.23 68.414 7.5 11.78 -5
5/27/2022 4:45:00 PM 20.1 68.18 7.51 11.79 -5
5/27/2022 5:00:00 PM 20.23 68.414 7.5 11.8 -5
5/27/2022 5:15:00 PM 20.37 68.666 7.51 12.75 -5
5/27/2022 5:30:00 PM 20.23 68.414 7.53 12.45 -5
5/27/2022 5:45:00 PM 20.48 68.864 7.51 14.33 -5
5/27/2022 6:00:00 PM 20.23 68.414 7.53 13.11 -5
5/27/2022 6:15:00 PM 20.48 68.864 7.57 12.7 -5
5/27/2022 6:30:00 PM 20.37 68.666 7.59 12.69 -5
5/27/2022 6:45:00 PM 20.36 68.648 7.58 12.64 -5
5/27/2022 7:00:00 PM 20.61 69.098 7.6 12.79 -5
5/27/2022 7:15:00 PM 20.37 68.666 7.61 12.75 -5
5/27/2022 7:30:00 PM 20.74 69.332 7.61 12.83 -5
5/27/2022 7:45:00 PM 20.36 68.648 7.62 13.02 -5
5/27/2022 8:00:00 PM 20.61 69.098 7.6 13.28 -5
5/27/2022 8:15:00 PM 20.48 68.864 7.59 12.93 -5
5/27/2022 8:30:00 PM 20.36 68.648 7.57 12.88 -5
5/27/2022 8:45:00 PM 20.61 69.098 7.57 12.9 -5
5/27/2022 9:00:00 PM 20.23 68.414 7.55 12.94 -5
5/27/2022 9:15:00 PM 20.61 69.098 7.54 12.78 -5
5/27/2022 9:30:00 PM 20.36 68.648 7.54 12.92 -5
5/27/2022 9:45:00 PM 20.36 68.648 7.54 12.79 -5
5/27/2022 10:00:00 PM 20.61 69.098 7.52 13.02 -5
5/27/2022 10:15:00 PM 20.23 68.414 7.49 12.74 -5
5/27/2022 10:30:00 PM 20.6 69.08 7.5 12.75 -5
5/27/2022 10:45:00 PM 20.36 68.648 7.49 12.69 -5
5/27/2022 11:00:00 PM 20.48 68.864 7.47 12.82 -5
5/27/2022 11:15:00 PM 20.48 68.864 7.48 12.78 -5
5/27/2022 11:30:00 PM 20.37 68.666 7.46 12.8 -5
5/27/2022 11:45:00 PM 20.74 69.332 7.43 12.74 -5
5/28/2022 12:00:00 AM 20.48 68.864 7.43 12.99 -5
5/28/2022 12:15:00 AM 20.61 69.098 7.45 12.85 -5
5/28/2022 12:30:00 AM 20.61 69.098 7.43 12.78 -5
5/28/2022 12:45:00 AM 20.37 68.666 7.39 12.86 -5
5/28/2022 1:00:00 AM 20.74 69.332 7.36 12.93 -5
5/28/2022 1:15:00 AM 20.48 68.864 7.35 12.93 -5
5/28/2022 1:30:00 AM 20.48 68.864 7.35 12.85 -5
5/28/2022 1:45:00 AM 20.61 69.098 7.35 13.09 -5
5/28/2022 2:00:00 AM 20.36 68.648 7.31 13.25 -5
5/28/2022 2:15:00 AM 20.61 69.098 7.21 13.15 -5
5/28/2022 2:30:00 AM 20.48 68.864 7.22 13.13 -5
5/28/2022 2:45:00 AM 20.37 68.666 7.25 13.07 -5
5/28/2022 3:00:00 AM 20.6 69.08 7.22 13.1 -5
5/28/2022 3:15:00 AM 20.23 68.414 7.2 13.13 -5
5/28/2022 3:30:00 AM 20.48 68.864 7.18 13.1 -5
5/28/2022 3:45:00 AM 20.36 68.648 7.16 13.29 -5
5/28/2022 4:00:00 AM 20.48 68.864 7.25 13.4 -5
5/28/2022 4:15:00 AM 20.45 68.81 7.25 13.25 -5
5/28/2022 4:30:00 AM 20.37 68.666 7.22 13.18 -5
5/28/2022 4:45:00 AM 20.48 68.864 7.23 13.17 -5
5/28/2022 5:00:00 AM 20.1 68.18 7.21 13.33 -5
5/28/2022 5:15:00 AM 20.46 68.828 7.22 13.14 -5
5/28/2022 5:30:00 AM 20.23 68.414 7.18 13.32 -5
5/28/2022 5:45:00 AM 20.36 68.648 7.16 13.71 -5
5/28/2022 6:00:00 AM 20.37 68.666 7.2 13.92 -5
5/28/2022 6:15:00 AM 20.23 68.414 7.22 14.33 -5
5/28/2022 6:30:00 AM 20.36 68.648 7.19 14.62 -5
5/28/2022 6:45:00 AM 20.1 68.18 7.13 14.82 -5
5/28/2022 7:00:00 AM 20.36 68.648 7.11 15.06 -5
5/28/2022 7:15:00 AM 19.99 67.982 7.1 15.11 -5
5/28/2022 7:30:00 AM 20.37 68.666 7.1 15.28 -5
5/28/2022 7:45:00 AM 20.11 68.198 7.08 15.24 -5
5/28/2022 8:00:00 AM 20.23 68.414 7.09 15.16 -5
5/28/2022 8:15:00 AM 20.36 68.648 7.11 15.12 -5
5/28/2022 8:30:00 AM 20.11 68.198 7.12 14.67 -5
5/28/2022 8:45:00 AM 20.36 68.648 7.11 14.63 -5
5/28/2022 9:00:00 AM 20.1 68.18 7.1 14.55 -5
5/28/2022 9:15:00 AM 20.23 68.414 7.14 14.56 -5
5/28/2022 9:30:00 AM 20.23 68.414 7.14 14.32 -5
5/28/2022 9:45:00 AM 20.11 68.198 7.19 14.23 -5
5/28/2022 10:00:00 AM 20.36 68.648 7.18 14.02 -5
5/28/2022 10:15:00 AM 20.1 68.18 7.2 13.69 -5
5/28/2022 10:30:00 AM 20.36 68.648 7.23 13.77 -5
5/28/2022 10:45:00 AM 20.23 68.414 7.24 13.66 -5
5/28/2022 11:00:00 AM 20.23 68.414 7.27 13.52 -5
5/28/2022 11:15:00 AM 20.48 68.864 7.24 13.54 -5
5/28/2022 11:30:00 AM 20.11 68.198 7.22 13.5 -5
5/28/2022 11:45:00 AM 20.36 68.648 7.26 13.54 -5
5/28/2022 12:00:00 PM 20.23 68.414 7.27 13.73 -5
5/28/2022 12:15:00 PM 20.37 68.666 7.3 13.8 -5
5/28/2022 12:30:00 PM 20.6 69.08 7.29 13.69 -5
5/28/2022 12:45:00 PM 20.36 68.648 7.28 13.82 -5
5/28/2022 1:00:00 PM 20.74 69.332 7.26 13.61 -5
5/28/2022 1:15:00 PM 20.48 68.864 7.3 13.4 -5
5/28/2022 1:30:00 PM 20.87 69.566 7.3 13.46 -5
5/28/2022 1:45:00 PM 20.74 69.332 7.3 13.59 -5
5/28/2022 2:00:00 PM 20.86 69.548 7.35 13.56 -5
5/28/2022 2:15:00 PM 20.98 69.764 7.35 13.46 -5
5/28/2022 2:30:00 PM 20.86 69.548 7.37 13.73 -5
5/28/2022 2:45:00 PM 21.24 70.232 7.37 13.68 -5
5/28/2022 3:00:00 PM 20.98 69.764 7.36 13.58 -5
5/28/2022 3:15:00 PM 21.24 70.232 7.36 13.69 -5
5/28/2022 3:30:00 PM 21.24 70.232 7.25 13.64 -5
5/28/2022 3:45:00 PM 21.36 70.448 7.27 14.08 -5
5/28/2022 4:00:00 PM 21.5 70.7 7.26 13.92 -5
5/28/2022 4:15:00 PM 21.36 70.448 7.33 13.71 -5
5/28/2022 4:30:00 PM 21.73 71.114 7.18 13.68 -5
5/28/2022 4:45:00 PM 21.5 70.7 7.16 13.54 -5
5/28/2022 5:00:00 PM 21.73 71.114 7.13 13.32 -5
5/28/2022 5:15:00 PM 21.73 71.114 7.06 13.38 -5
5/28/2022 5:30:00 PM 21.62 70.916 7.05 13.5 -5
5/28/2022 5:45:00 PM 21.87 71.366 7.08 13.49 -5
5/28/2022 6:00:00 PM 21.62 70.916 7.15 13.32 -5
5/28/2022 6:15:00 PM 21.73 71.114 7.39 13.43 -5
5/28/2022 6:30:00 PM 21.87 71.366 7.49 12.97 -5
5/28/2022 6:45:00 PM 21.5 70.7 7.53 13.07 -5
5/28/2022 7:00:00 PM 21.87 71.366 7.53 13.03 -5
5/28/2022 7:15:00 PM 21.5 70.7 7.53 13.14 -5
5/28/2022 7:30:00 PM 21.62 70.916 7.57 13.02 -5
5/28/2022 7:45:00 PM 21.73 71.114 7.57 12.97 -5
5/28/2022 8:00:00 PM 21.36 70.448 7.56 12.81 -5
5/28/2022 8:15:00 PM 21.73 71.114 7.55 12.99 -5
5/28/2022 8:30:00 PM 21.5 70.7 7.55 12.81 -5
5/28/2022 8:45:00 PM 21.73 71.114 7.48 12.78 -5
5/28/2022 9:00:00 PM 21.5 70.7 7.45 12.67 -5
5/28/2022 9:15:00 PM 21.24 70.232 7.5 12.84 -5
5/28/2022 9:30:00 PM 21.73 71.114 7.49 13.08 -5
5/28/2022 9:45:00 PM 21.36 70.448 7.49 13.48 -5
5/28/2022 10:00:00 PM 21.5 70.7 7.46 13.76 -5
5/28/2022 10:15:00 PM 21.62 70.916 7.47 13.41 -5
5/28/2022 10:30:00 PM 21.36 70.448 7.47 13.15 -5
5/28/2022 10:45:00 PM 21.87 71.366 7.46 13.13 -5
5/28/2022 11:00:00 PM 21.5 70.7 7.42 12.92 -5
5/28/2022 11:15:00 PM 21.73 71.114 7.41 12.99 -5
5/28/2022 11:30:00 PM 21.62 70.916 7.42 12.96 -5
5/28/2022 11:45:00 PM 21.5 70.7 7.39 12.95 -5
5/29/2022 12:00:00 AM 21.73 71.114 7.33 12.82 -5
5/29/2022 12:15:00 AM 21.36 70.448 7.34 12.77 -5
5/29/2022 12:30:00 AM 21.73 71.114 7.36 12.66 -5
5/29/2022 12:45:00 AM 21.5 70.7 7.33 12.77 -5
5/29/2022 1:00:00 AM 21.5 70.7 7.35 12.81 -5
5/29/2022 1:15:00 AM 21.5 70.7 7.32 12.79 -5
5/29/2022 1:30:00 AM 21.24 70.232 7.32 12.78 -5
5/29/2022 1:45:00 AM 21.62 70.916 7.31 12.94 -5
5/29/2022 2:00:00 AM 21.11 69.998 7.31 12.91 -5
5/29/2022 2:15:00 AM 21.24 70.232 7.28 12.88 -5
5/29/2022 2:30:00 AM 21.24 70.232 7.26 12.83 -5
5/29/2022 2:45:00 AM 20.98 69.764 7.26 12.93 -5
5/29/2022 3:00:00 AM 21.25 70.25 7.25 13.01 -5
5/29/2022 3:15:00 AM 20.87 69.566 7.25 12.88 -5
5/29/2022 3:30:00 AM 21.11 69.998 7.19 12.95 -5
5/29/2022 3:45:00 AM 20.86 69.548 7.17 13.13 -5
5/29/2022 4:00:00 AM 20.87 69.566 7.18 13.04 -5
5/29/2022 4:15:00 AM 20.98 69.764 7.19 12.91 -5
5/29/2022 4:30:00 AM 20.74 69.332 7.16 12.8 -5
5/29/2022 4:45:00 AM 20.98 69.764 7.13 12.98 -5
5/29/2022 5:00:00 AM 20.61 69.098 7.15 12.88 -5
5/29/2022 5:15:00 AM 20.86 69.548 7.14 13.22 -5
5/29/2022 5:30:00 AM 20.74 69.332 7.15 12.28 -5
5/29/2022 5:45:00 AM 20.74 69.332 7.18 12.56 -5
5/29/2022 6:00:00 AM 20.87 69.566 7.18 12.38 -5
5/29/2022 6:15:00 AM 20.48 68.864 7.17 12.38 -5
5/29/2022 6:30:00 AM 20.87 69.566 7.17 12.46 -5
5/29/2022 6:45:00 AM 20.48 68.864 7.17 12.42 -5
5/29/2022 7:00:00 AM 20.74 69.332 7.16 12.48 -5
5/29/2022 7:15:00 AM 20.61 69.098 7.16 12.33 -5
5/29/2022 7:30:00 AM 20.48 68.864 7.15 12.15 -5
5/29/2022 7:45:00 AM 20.86 69.548 7.14 13.29 -5
5/29/2022 8:00:00 AM 20.48 68.864 7.08 12.73 -5
5/29/2022 8:15:00 AM 20.87 69.566 6.93 12.67 -5
5/29/2022 8:30:00 AM 20.36 68.648 6.83 12.51 -5
5/29/2022 8:45:00 AM 20.74 69.332 6.81 12.69 -5
5/29/2022 9:00:00 AM 20.48 68.864 6.79 12.41 -5
5/29/2022 9:15:00 AM 20.74 69.332 6.84 12.5 -5
5/29/2022 9:30:00 AM 20.74 69.332 6.78 12.34 -5
5/29/2022 9:45:00 AM 20.6 69.08 7.03 12.12 -5
5/29/2022 10:00:00 AM 20.74 69.332 7.16 11.95 -5
5/29/2022 10:15:00 AM 20.61 69.098 7.21 11.9 -5
5/29/2022 10:30:00 AM 20.98 69.764 7.25 11.97 -5
5/29/2022 10:45:00 AM 20.61 69.098 7.26 11.98 -5
5/29/2022 11:00:00 AM 20.98 69.764 7.28 11.97 -5
5/29/2022 11:15:00 AM 20.74 69.332 7.31 11.97 -5
5/29/2022 11:30:00 AM 20.98 69.764 7.31 12.17 -5
5/29/2022 11:45:00 AM 20.98 69.764 7.32 12.21 -5
5/29/2022 12:00:00 PM 21.11 69.998 7.33 12.11 -5
5/29/2022 12:15:00 PM 21.36 70.448 7.33 12.03 -5
5/29/2022 12:30:00 PM 21.11 69.998 7.35 12.16 -5
5/29/2022 12:45:00 PM 21.62 70.916 7.34 12.66 -5
5/29/2022 1:00:00 PM 21.24 70.232 7.36 12.22 -5
5/29/2022 1:15:00 PM 21.73 71.114 7.36 12.36 -5
5/29/2022 1:30:00 PM 21.62 70.916 7.37 12.47 -5
5/29/2022 1:45:00 PM 21.73 71.114 7.37 12.42 -5
5/29/2022 2:00:00 PM 21.87 71.366 7.38 12.34 -5
5/29/2022 2:15:00 PM 21.73 71.114 7.39 12.31 -5
5/29/2022 2:30:00 PM 22.11 71.798 7.39 12.42 -5
5/29/2022 2:45:00 PM 21.87 71.366 7.41 12.64 -5
5/29/2022 3:00:00 PM 22.25 72.05 7.27 12.44 -5
5/29/2022 3:15:00 PM 22.11 71.798 7.37 12.62 -5
5/29/2022 3:30:00 PM 21.98 71.564 7.44 12.6 -5
5/29/2022 3:45:00 PM 22.49 72.482 7.46 12.66 -5
5/29/2022 4:00:00 PM 22.25 72.05 7.48 12.57 -5
5/29/2022 4:15:00 PM 22.36 72.248 7.49 12.54 -5
5/29/2022 4:30:00 PM 22.63 72.734 7.49 12.51 -5
5/29/2022 4:45:00 PM 22.49 72.482 7.47 12.9 -5
5/29/2022 5:00:00 PM 22.75 72.95 7.49 12.62 -5
5/29/2022 5:15:00 PM 22.75 72.95 7.41 12.53 -5
5/29/2022 5:30:00 PM 22.62 72.716 7.31 12.52 -5
5/29/2022 5:45:00 PM 23 73.4 7.3 12.54 -5
5/29/2022 6:00:00 PM 22.75 72.95 7.29 12.52 -5
5/29/2022 6:15:00 PM 22.63 72.734 7.29 12.49 -5
5/29/2022 6:30:00 PM 23.13 73.634 7.26 12.45 -5
5/29/2022 6:45:00 PM 22.75 72.95 7.24 12.56 -5
5/29/2022 7:00:00 PM 22.75 72.95 7.24 12.35 -5
5/29/2022 7:15:00 PM 23.07 73.526 7.26 12.34 -5
5/29/2022 7:30:00 PM 22.75 72.95 7.26 12.3 -5
5/29/2022 7:45:00 PM 22.87 73.166 7.25 12.24 -5
5/29/2022 8:00:00 PM 23 73.4 7.27 12.3 -5
5/29/2022 8:15:00 PM 22.75 72.95 7.26 12.35 -5
5/29/2022 8:30:00 PM 22.75 72.95 7.28 12.48 -5
5/29/2022 8:45:00 PM 23.13 73.634 7.29 12.52 -5
5/29/2022 9:00:00 PM 22.75 72.95 7.32 12.48 -5
5/29/2022 9:15:00 PM 22.75 72.95 7.31 12.42 -5
5/29/2022 9:30:00 PM 23 73.4 7.29 12.49 -5
5/29/2022 9:45:00 PM 22.75 72.95 7.33 12.4 -5
5/29/2022 10:00:00 PM 23 73.4 7.32 12.35 -5
5/29/2022 10:15:00 PM 22.87 73.166 7.27 12.59 -5
5/29/2022 10:30:00 PM 22.62 72.716 7.25 12.63 -5
5/29/2022 10:45:00 PM 23.13 73.634 7.32 12.77 -5
5/29/2022 11:00:00 PM 22.75 72.95 7.41 12.48 -5
5/29/2022 11:15:00 PM 22.75 72.95 7.42 12.42 -5
5/29/2022 11:30:00 PM 23 73.4 7.36 12.34 -5
5/29/2022 11:45:00 PM 22.62 72.716 7.21 12.42 -5
5/30/2022 12:00:00 AM 23 73.4 7.19 12.34 -5
5/30/2022 12:15:00 AM 22.75 72.95 7.21 12.29 -5
5/30/2022 12:30:00 AM 22.62 72.716 7.17 12.36 -5
5/30/2022 12:45:00 AM 23 73.4 7.13 12.57 -5
5/30/2022 1:00:00 AM 22.75 72.95 7.15 12.26 -5
5/30/2022 1:15:00 AM 22.86 73.148 7.12 12.32 -5
5/30/2022 1:30:00 AM 22.86 73.148 7.07 12.41 -5
5/30/2022 1:45:00 AM 22.49 72.482 7.08 12.39 -5
5/30/2022 2:00:00 AM 22.87 73.166 7.1 12.47 -5
5/30/2022 2:15:00 AM 22.63 72.734 7.09 12.35 -5
5/30/2022 2:30:00 AM 22.49 72.482 7.09 12.43 -5
5/30/2022 2:45:00 AM 22.87 73.166 7.08 12.43 -5
5/30/2022 3:00:00 AM 22.36 72.248 7.09 12.46 -5
5/30/2022 3:15:00 AM 22.75 72.95 7.06 12.39 -5
5/30/2022 3:30:00 AM 22.49 72.482 7.07 12.45 -5
5/30/2022 3:45:00 AM 22.49 72.482 7.04 12.48 -5
5/30/2022 4:00:00 AM 22.62 72.716 7.03 12.46 -5
5/30/2022 4:15:00 AM 22.25 72.05 7.05 12.5 -5
5/30/2022 4:30:00 AM 22.63 72.734 7.02 12.51 -5
5/30/2022 4:45:00 AM 22.25 72.05 7.01 12.6 -5
5/30/2022 5:00:00 AM 22.36 72.248 6.99 12.63 -5
5/30/2022 5:15:00 AM 22.36 72.248 6.99 12.71 -5
5/30/2022 5:30:00 AM 22.11 71.798 7 12.67 -5
5/30/2022 5:45:00 AM 22.49 72.482 6.97 12.83 -5
5/30/2022 6:00:00 AM 22 71.6 6.97 13.03 -5
5/30/2022 6:15:00 AM 22.25 72.05 7.02 12.89 -5
5/30/2022 6:30:00 AM 22.11 71.798 6.97 13.06 -5
5/30/2022 6:45:00 AM 21.99 71.582 6.96 12.9 -5
5/30/2022 7:00:00 AM 22.25 72.05 6.92 12.93 -5
5/30/2022 7:15:00 AM 21.87 71.366 6.93 12.8 -5
5/30/2022 7:30:00 AM 22.25 72.05 6.93 12.78 -5
5/30/2022 7:45:00 AM 21.87 71.366 6.92 12.85 -5
5/30/2022 8:00:00 AM 22.11 71.798 6.94 12.73 -5
5/30/2022 8:15:00 AM 21.99 71.582 6.94 12.64 -5
5/30/2022 8:30:00 AM 21.99 71.582 6.94 12.77 -5
5/30/2022 8:45:00 AM 22.11 71.798 6.92 12.14 -5
5/30/2022 9:00:00 AM 21.87 71.366 6.92 12.15 -5
5/30/2022 9:15:00 AM 22.25 72.05 6.91 12.18 -5
5/30/2022 9:30:00 AM 21.87 71.366 6.91 12.25 -5
5/30/2022 9:45:00 AM 22.25 72.05 6.95 12.3 -5
5/30/2022 10:00:00 AM 21.98 71.564 6.96 12.56 -5
5/30/2022 10:15:00 AM 22.11 71.798 6.98 12.62 -5
5/30/2022 10:30:00 AM 22.36 72.248 6.98 12.51 -5
5/30/2022 10:45:00 AM 21.99 71.582 6.98 12.54 -5
5/30/2022 11:00:00 AM 22.49 72.482 6.95 12.51 -5
5/30/2022 11:15:00 AM 22.36 72.248 6.95 12.6 -5
5/30/2022 11:30:00 AM 22.36 72.248 6.97 12.41 -5
5/30/2022 11:45:00 AM 22.62 72.716 7 12.44 -5
5/30/2022 12:00:00 PM 22.36 72.248 6.99 12.46 -5
5/30/2022 12:15:00 PM 22.86 73.148 7 12.5 -5
5/30/2022 12:30:00 PM 22.63 72.734 6.98 12.32 -5
5/30/2022 12:45:00 PM 22.86 73.148 7 12.19 -5
5/30/2022 1:00:00 PM 22.87 73.166 6.97 12.34 -5
5/30/2022 1:15:00 PM 22.75 72.95 6.94 12.32 -5
5/30/2022 1:30:00 PM 23.24 73.832 6.92 12.5 -5
5/30/2022 1:45:00 PM 23.04 73.472 6.92 12.3 -5
5/30/2022 2:00:00 PM 23 73.4 6.92 12.46 -5
5/30/2022 2:15:00 PM 23.5 74.3 6.94 12.5 -5
5/30/2022 2:30:00 PM 23.24 73.832 6.94 12.87 -5
5/30/2022 2:45:00 PM 23.24 73.832 6.97 12.79 -5
5/30/2022 3:00:00 PM 23.61 74.498 7 13.31 -5
5/30/2022 3:15:00 PM 23.61 74.498 7.02 13.27 -5
5/30/2022 3:30:00 PM 23.5 74.3 7.02 13.15 -5
5/30/2022 3:45:00 PM 23.61 74.498 7.04 13.01 -5
5/30/2022 4:00:00 PM 23.87 74.966 7 13.03 -5
5/30/2022 4:15:00 PM 23.99 75.182 7.01 12.96 -5
5/30/2022 4:30:00 PM 23.88 74.984 7 13.1 -5
5/30/2022 4:45:00 PM 23.99 75.182 7.03 13.02 -5
5/30/2022 5:00:00 PM 23.99 75.182 7.04 13.1 -5
5/30/2022 5:15:00 PM 23.99 75.182 7.03 12.96 -5
5/30/2022 5:30:00 PM 24.13 75.434 7.04 12.95 -5
5/30/2022 5:45:00 PM 24.13 75.434 7.05 13.11 -5
5/30/2022 6:00:00 PM 24.25 75.65 7.07 13.01 -5
5/30/2022 6:15:00 PM 24.24 75.632 7.09 13.36 -5
5/30/2022 6:30:00 PM 24.24 75.632 7.1 13.24 -5
5/30/2022 6:45:00 PM 24.37 75.866 7.07 13.05 -5
5/30/2022 7:00:00 PM 24.37 75.866 7.06 12.95 -5
5/30/2022 7:15:00 PM 24.37 75.866 7.1 13.08 -5
5/30/2022 7:30:00 PM 24.37 75.866 7.12 13.06 -5
5/30/2022 7:45:00 PM 24.37 75.866 7.13 12.96 -5
5/30/2022 8:00:00 PM 24.37 75.866 7.12 13.04 -5
5/30/2022 8:15:00 PM 24.37 75.866 7.12 13.06 -5
5/30/2022 8:30:00 PM 24.37 75.866 7.11 13.02 -5
5/30/2022 8:45:00 PM 24.37 75.866 7.13 12.94 -5
5/30/2022 9:00:00 PM 24.37 75.866 7.12 13.02 -5
5/30/2022 9:15:00 PM 24.37 75.866 7.12 13.16 -5
5/30/2022 9:30:00 PM 24.37 75.866 7.11 13.05 -5
5/30/2022 9:45:00 PM 24.37 75.866 7.12 13.11 -5
5/30/2022 10:00:00 PM 24.24 75.632 7.16 13.02 -5
5/30/2022 10:15:00 PM 24.24 75.632 7.15 12.96 -5
5/30/2022 10:30:00 PM 24.24 75.632 7.16 13.03 -5
5/30/2022 10:45:00 PM 24.24 75.632 7.16 12.91 -5
5/30/2022 11:00:00 PM 24.24 75.632 7.16 12.86 -5
5/30/2022 11:15:00 PM 24.24 75.632 7.11 12.77 -5
5/30/2022 11:30:00 PM 24.62 76.316 7.08 12.83 -5
5/30/2022 11:45:00 PM 24.5 76.1 7.05 12.78 -5
5/31/2022 12:00:00 AM 24.24 75.632 7 12.87 -5
5/31/2022 12:15:00 AM 24.24 75.632 7.05 12.9 -5
5/31/2022 12:30:00 AM 24.13 75.434 7.04 12.94 -5
5/31/2022 12:45:00 AM 24.62 76.316 7.07 12.93 -5
5/31/2022 1:00:00 AM 24.24 75.632 7.08 12.89 -5
5/31/2022 1:15:00 AM 24.13 75.434 7.05 12.86 -5
5/31/2022 1:30:00 AM 23.99 75.182 7.02 12.91 -5
5/31/2022 1:45:00 AM 24.5 76.1 7.03 12.93 -5
5/31/2022 2:00:00 AM 24.24 75.632 7.02 12.87 -5
5/31/2022 2:15:00 AM 23.99 75.182 7.06 12.97 -5
5/31/2022 2:30:00 AM 24.37 75.866 7.09 13.17 -5
5/31/2022 2:45:00 AM 24.25 75.65 7.08 12.94 -5
5/31/2022 3:00:00 AM 23.99 75.182 7.07 14.13 -5
5/31/2022 3:15:00 AM 24.08 75.344 7.03 13.06 -5
5/31/2022 3:30:00 AM 24.24 75.632 7.01 13.04 -5
5/31/2022 3:45:00 AM 23.87 74.966 7.01 13.09 -5
5/31/2022 4:00:00 AM 23.87 74.966 7.01 13.09 -5
5/31/2022 4:15:00 AM 24.13 75.434 7.01 13.08 -5
5/31/2022 4:30:00 AM 23.76 74.768 7.02 13.05 -5
5/31/2022 4:45:00 AM 23.87 74.966 7 12.97 -5
5/31/2022 5:00:00 AM 23.87 74.966 6.96 12.97 -5
5/31/2022 5:15:00 AM 23.61 74.498 6.91 13.04 -5
5/31/2022 5:30:00 AM 23.99 75.182 6.92 13.32 -5
5/31/2022 5:45:00 AM 23.76 74.768 6.92 13.22 -5
5/31/2022 6:00:00 AM 23.61 74.498 6.91 13.33 -5
5/31/2022 6:15:00 AM 23.87 74.966 6.95 13.34 -5
5/31/2022 6:30:00 AM 23.5 74.3 6.92 13.51 -5
5/31/2022 6:45:00 AM 23.76 74.768 6.94 13.35 -5
5/31/2022 7:00:00 AM 23.61 74.498 6.93 13.45 -5
5/31/2022 7:15:00 AM 23.5 74.3 7.47 12.28 -5
5/31/2022 7:30:00 AM 23.87 74.966 7.4 11.94 -5
5/31/2022 7:45:00 AM 23.63 74.534 7.4 11.56 -5
5/31/2022 8:00:00 AM 23.5 74.3 7.39 11.57 -5
5/31/2022 8:15:00 AM 23.87 74.966 7.38 11.43 -5
5/31/2022 8:30:00 AM 23.61 74.498 7.39 11.65 -5
5/31/2022 8:45:00 AM 23.76 74.768 7.44 11.52 -5
5/31/2022 9:00:00 AM 23.87 74.966 7.4 11.5 -5
5/31/2022 9:15:00 AM 23.61 74.498 7.43 11.08 -5
5/31/2022 9:30:00 AM 23.87 74.966 7.36 10.74 -5
5/31/2022 9:45:00 AM 23.76 74.768 7.41 10.76 -5
5/31/2022 10:00:00 AM 23.61 74.498 7.4 10.79 -5
5/31/2022 10:15:00 AM 24.11 75.398 7.45 10.88 -5
5/31/2022 10:30:00 AM 23.87 74.966 7.42 10.92 -5
5/31/2022 10:45:00 AM 23.99 75.182 7.41 10.92 -5
5/31/2022 11:00:00 AM 24.13 75.434 7.41 11.04 -5
5/31/2022 11:15:00 AM 23.99 75.182 7.44 10.94 -5
5/31/2022 11:30:00 AM 24.24 75.632 7.43 11.15 -5
5/31/2022 11:45:00 AM 24.24 75.632 7.46 11.2 -5
5/31/2022 12:00:00 PM 24.25 75.65 7.51 11.2 -5
5/31/2022 12:15:00 PM 24.61 76.298 7.49 11.11 -5
5/31/2022 12:30:00 PM 24.5 76.1 7.48 11.21 -5
5/31/2022 12:45:00 PM 24.37 75.866 7.53 11.16 -5
5/31/2022 1:00:00 PM 24.61 76.298 7.51 11.33 -5
5/31/2022 1:15:00 PM 24.87 76.766 7.51 11.43 -5
5/31/2022 1:30:00 PM 24.74 76.532 7.53 11.38 -5
5/31/2022 1:45:00 PM 24.74 76.532 7.47 11.34 -5
5/31/2022 2:00:00 PM 24.74 76.532 7.52 11.57 -5
5/31/2022 2:15:00 PM 25.25 77.45 7.48 11.6 -5
5/31/2022 2:30:00 PM 25.11 77.198 7.51 11.44 -5
5/31/2022 2:45:00 PM 25 77 7.57 11.57 -5
5/31/2022 3:00:00 PM 25.11 77.198 7.63 11.6 -5
5/31/2022 3:15:00 PM 25.12 77.216 7.65 11.5 -5
5/31/2022 3:30:00 PM 25.49 77.882 7.6 11.68 -5
5/31/2022 3:45:00 PM 25.48 77.864 7.65 11.58 -5
5/31/2022 4:00:00 PM 25.37 77.666 7.78 11.73 -5
5/31/2022 4:15:00 PM 25.48 77.864 7.7 12.15 -5
5/31/2022 4:30:00 PM 25.48 77.864 7.7 12.78 -5
5/31/2022 4:45:00 PM 25.63 78.134 7.69 12.48 -5
5/31/2022 5:00:00 PM 25.63 78.134 7.83 12.33 -5
5/31/2022 5:15:00 PM 25.74 78.332 7.74 12.21 -5
5/31/2022 5:30:00 PM 25.74 78.332 7.83 12.73 -5
5/31/2022 5:45:00 PM 25.74 78.332 7.74 12.44 -5
5/31/2022 6:00:00 PM 25.74 78.332 7.81 12.33 -5
5/31/2022 6:15:00 PM 25.85 78.53 7.81 12.41 -5
5/31/2022 6:30:00 PM 25.85 78.53 7.86 12.7 -5
5/31/2022 6:45:00 PM 25.85 78.53 7.67 12.43 -5
5/31/2022 7:00:00 PM 25.85 78.53 7.7 12.39 -5
5/31/2022 7:15:00 PM 26 78.8 7.77 12.44 -5
5/31/2022 7:30:00 PM 26 78.8 7.71 12.55 -5
5/31/2022 7:45:00 PM 26 78.8 7.62 12.42 -5
5/31/2022 8:00:00 PM 26 78.8 7.7 12.52 -5
5/31/2022 8:15:00 PM 26 78.8 7.54 12.49 -5
5/31/2022 8:30:00 PM 26 78.8 7.56 12.67 -5
5/31/2022 8:45:00 PM 26 78.8 7.74 12.59 -5
5/31/2022 9:00:00 PM 26 78.8 7.84 12.77 -5
5/31/2022 9:15:00 PM 26 78.8 7.82 12.85 -5
5/31/2022 9:30:00 PM 26 78.8 7.84 12.99 -5
5/31/2022 9:45:00 PM 25.85 78.53 7.73 12.73 -5
5/31/2022 10:00:00 PM 25.86 78.548 7.68 12.72 -5
5/31/2022 10:15:00 PM 25.85 78.53 7.78 12.69 -5
5/31/2022 10:30:00 PM 25.85 78.53 7.74 12.95 -5
5/31/2022 10:45:00 PM 25.85 78.53 7.79 12.65 -5
5/31/2022 11:00:00 PM 25.85 78.53 7.8 12.62 -5
5/31/2022 11:15:00 PM 25.85 78.53 7.76 12.46 -5
5/31/2022 11:30:00 PM 25.75 78.35 7.76 12.62 -5
5/31/2022 11:45:00 PM 25.74 78.332 7.73 12.48 -5
6/1/2022 12:00:00 AM 25.74 78.332 7.71 12.51 -5
6/1/2022 12:15:00 AM 25.74 78.332 7.69 12.46 -5
6/1/2022 12:30:00 AM 25.74 78.332 7.64 12.62 -5
6/1/2022 12:45:00 AM 25.63 78.134 7.65 12.43 -5
6/1/2022 1:00:00 AM 25.63 78.134 7.62 12.53 -5
6/1/2022 1:15:00 AM 25.63 78.134 7.65 12.56 -5
6/1/2022 1:30:00 AM 25.9 78.62 7.56 12.66 -5
6/1/2022 1:45:00 AM 25.63 78.134 7.62 12.5 -5
6/1/2022 2:00:00 AM 25.49 77.882 7.58 12.56 -5
6/1/2022 2:15:00 AM 25.48 77.864 7.6 12.58 -5
6/1/2022 2:30:00 AM 25.74 78.332 7.52 12.71 -5
6/1/2022 2:45:00 AM 25.49 77.882 7.59 12.69 -5
6/1/2022 3:00:00 AM 25.37 77.666 7.57 12.56 -5
6/1/2022 3:15:00 AM 25.25 77.45 7.54 12.58 -5
6/1/2022 3:30:00 AM 25.63 78.134 7.51 12.69 -5
6/1/2022 3:45:00 AM 25.37 77.666 7.52 12.64 -5
6/1/2022 4:00:00 AM 25.11 77.198 7.53 12.62 -5
6/1/2022 4:15:00 AM 25.49 77.882 7.54 12.65 -5
6/1/2022 4:30:00 AM 25.25 77.45 7.49 12.61 -5
6/1/2022 4:45:00 AM 25 77 7.48 12.61 -5
6/1/2022 5:00:00 AM 25.37 77.666 7.49 12.62 -5
6/1/2022 5:15:00 AM 25 77 7.45 12.67 -5
6/1/2022 5:30:00 AM 25.11 77.198 7.44 12.75 -5
6/1/2022 5:45:00 AM 25.12 77.216 7.38 12.88 -5
6/1/2022 6:00:00 AM 24.87 76.766 7.35 13.27 -5
6/1/2022 6:15:00 AM 25.11 77.198 7.35 13.16 -5
6/1/2022 6:30:00 AM 24.87 76.766 7.35 13.2 -5
6/1/2022 6:45:00 AM 24.87 76.766 7.38 13.15 -5
6/1/2022 7:00:00 AM 24.88 76.784 7.35 13.15 -5
6/1/2022 7:15:00 AM 24.74 76.532 7.34 12.95 -5
6/1/2022 7:30:00 AM 24.74 76.532 7.27 12.96 -5
6/1/2022 7:45:00 AM 24.87 76.766 7.39 12.73 -5
6/1/2022 8:00:00 AM 24.62 76.316 7.38 12.85 -5
6/1/2022 8:15:00 AM 24.62 76.316 7.34 12.24 -5
6/1/2022 8:30:00 AM 24.87 76.766 7.37 12.34 -5
6/1/2022 8:45:00 AM 24.62 76.316 7.36 12.27 -5
6/1/2022 9:00:00 AM 24.74 76.532 7.37 12.31 -5
6/1/2022 9:15:00 AM 24.87 76.766 7.37 12.39 -5
6/1/2022 9:30:00 AM 24.74 76.532 7.39 12.31 -5
6/1/2022 9:45:00 AM 25 77 7.42 12.2 -5
6/1/2022 10:00:00 AM 25 77 7.42 12.22 -5
6/1/2022 10:15:00 AM 24.87 76.766 7.44 12.36 -5
6/1/2022 10:30:00 AM 25.11 77.198 7.44 12.32 -5
6/1/2022 10:45:00 AM 25.12 77.216 7.42 12.23 -5
6/1/2022 11:00:00 AM 25 77 7.47 12.23 -5
6/1/2022 11:15:00 AM 25 77 7.49 12.4 -5
6/1/2022 11:30:00 AM 25.48 77.864 7.51 12.32 -5
6/1/2022 11:45:00 AM 25.25 77.45 7.47 12.3 -5
6/1/2022 12:00:00 PM 25.25 77.45 7.52 12.45 -5
6/1/2022 12:15:00 PM 25.37 77.666 7.54 12.16 -5
6/1/2022 12:30:00 PM 25.63 78.134 7.58 12.1 -5
6/1/2022 12:45:00 PM 25.63 78.134 7.6 12.11 -5
6/1/2022 1:00:00 PM 25.74 78.332 7.58 12.17 -5
6/1/2022 1:15:00 PM 25.63 78.134 7.64 12.34 -5
6/1/2022 1:30:00 PM 25.63 78.134 7.72 12.28 -5
6/1/2022 1:45:00 PM 25.63 78.134 7.72 12.3 -5
6/1/2022 2:00:00 PM 25.74 78.332 7.74 12.8 -5
6/1/2022 2:15:00 PM 25.74 78.332 7.75 12.81 -5
6/1/2022 2:30:00 PM 25.85 78.53 7.75 12.76 -5
6/1/2022 2:45:00 PM 25.85 78.53 7.73 12.71 -5
6/1/2022 3:00:00 PM 25.85 78.53 7.78 12.88 -5
6/1/2022 3:15:00 PM 26 78.8 7.79 13.09 -5
6/1/2022 3:30:00 PM 26 78.8 7.71 12.93 -5
6/1/2022 3:45:00 PM 26 78.8 7.72 13.08 -5
6/1/2022 4:00:00 PM 26.11 78.998 7.82 12.93 -5
6/1/2022 4:15:00 PM 26.24 79.232 7.91 13.63 -5
6/1/2022 4:30:00 PM 26.24 79.232 7.87 13.36 -5
6/1/2022 4:45:00 PM 26.24 79.232 7.89 13.72 -5
6/1/2022 5:00:00 PM 26.24 79.232 7.92 13.56 -5
6/1/2022 5:15:00 PM 26.37 79.466 7.88 13.59 -5
6/1/2022 5:30:00 PM 26.37 79.466 7.85 13.34 -5
6/1/2022 5:45:00 PM 26.37 79.466 7.93 13.52 -5
6/1/2022 6:00:00 PM 26.37 79.466 7.93 13.76 -5
6/1/2022 6:15:00 PM 26.37 79.466 7.95 13.74 -5
6/1/2022 6:30:00 PM 26.49 79.682 7.95 13.86 -5
6/1/2022 6:45:00 PM 26.49 79.682 7.91 14.08 -5
6/1/2022 7:00:00 PM 26.49 79.682 7.97 13.87 -5
6/1/2022 7:15:00 PM 26.49 79.682 7.96 13.86 -5
6/1/2022 7:30:00 PM 26.49 79.682 7.96 13.77 -5
6/1/2022 7:45:00 PM 26.49 79.682 8.02 13.99 -5
6/1/2022 8:00:00 PM 26.48 79.664 7.91 14.1 -5
6/1/2022 8:15:00 PM 26.49 79.682 7.9 14.16 -5
6/1/2022 8:30:00 PM 26.49 79.682 7.79 13.94 -5
6/1/2022 8:45:00 PM 26.37 79.466 8.05 14.15 -5
6/1/2022 9:00:00 PM 26.37 79.466 7.86 14.05 -5
6/1/2022 9:15:00 PM 26.37 79.466 7.75 14.14 -5
6/1/2022 9:30:00 PM 26.37 79.466 7.76 13.97 -5
6/1/2022 9:45:00 PM 26.37 79.466 7.95 13.91 -5
6/1/2022 10:00:00 PM 26.37 79.466 7.89 14.07 -5
6/1/2022 10:15:00 PM 26.24 79.232 7.85 13.94 -5
6/1/2022 10:30:00 PM 26.24 79.232 7.73 13.93 -5
6/1/2022 10:45:00 PM 26.24 79.232 7.8 13.89 -5
6/1/2022 11:00:00 PM 26.24 79.232 7.79 13.92 -5
6/1/2022 11:15:00 PM 26.24 79.232 7.75 14.13 -5
6/1/2022 11:30:00 PM 26.24 79.232 7.72 13.85 -5
6/1/2022 11:45:00 PM 26.24 79.232 7.81 13.81 -5
6/2/2022 12:00:00 AM 26.11 78.998 7.8 13.93 -5
6/2/2022 12:15:00 AM 26.11 78.998 7.73 13.95 -5
6/2/2022 12:30:00 AM 26.11 78.998 7.61 13.98 -5
6/2/2022 12:45:00 AM 26 78.8 7.69 14 -5
6/2/2022 1:00:00 AM 26 78.8 7.66 14.06 -5
6/2/2022 1:15:00 AM 26 78.8 7.54 14.18 -5
6/2/2022 1:30:00 AM 25.85 78.53 7.6 14.07 -5
6/2/2022 1:45:00 AM 25.86 78.548 7.61 14.04 -5
6/2/2022 2:00:00 AM 25.85 78.53 7.67 13.89 -5
6/2/2022 2:15:00 AM 25.74 78.332 7.62 14 -5
6/2/2022 2:30:00 AM 25.74 78.332 7.61 13.95 -5
6/2/2022 2:45:00 AM 25.63 78.134 7.51 13.92 -5
6/2/2022 3:00:00 AM 26 78.8 7.62 13.86 -5
6/2/2022 3:15:00 AM 25.74 78.332 7.48 14.03 -5
6/2/2022 3:30:00 AM 25.63 78.134 7.5 14.01 -5
6/2/2022 3:45:00 AM 25.48 77.864 7.51 14.09 -5
6/2/2022 4:00:00 AM 25.49 77.882 7.36 14.09 -5
6/2/2022 4:15:00 AM 25.86 78.548 7.35 14.25 -5
6/2/2022 4:30:00 AM 25.63 78.134 7.43 14.08 -5
6/2/2022 4:45:00 AM 25.37 77.666 7.45 13.99 -5
6/2/2022 5:00:00 AM 25.37 77.666 7.42 13.94 -5
6/2/2022 5:15:00 AM 25.75 78.35 7.49 14.19 -5
6/2/2022 5:30:00 AM 25.37 77.666 7.38 14.05 -5
6/2/2022 5:45:00 AM 25.25 77.45 7.46 14.05 -5
6/2/2022 6:00:00 AM 25.63 78.134 7.42 14.2 -5
6/2/2022 6:15:00 AM 25.37 77.666 7.42 14.26 -5
6/2/2022 6:30:00 AM 25.25 77.45 7.36 14.33 -5
6/2/2022 6:45:00 AM 25.49 77.882 7.38 14.44 -5
6/2/2022 7:00:00 AM 25.25 77.45 7.41 14.31 -5
6/2/2022 7:15:00 AM 25.11 77.198 7.35 12.16 -5
6/2/2022 7:30:00 AM 25.49 77.882 7.27 12.02 -5
6/2/2022 7:45:00 AM 25.25 77.45 7.27 12.17 -5
6/2/2022 8:00:00 AM 25 77 7.3 12.09 -5
6/2/2022 8:15:00 AM 25.37 77.666 7.26 12.34 -5
6/2/2022 8:30:00 AM 25.11 77.198 7.24 11.95 -5
6/2/2022 8:45:00 AM 25.11 77.198 7.34 12.22 -5
6/2/2022 9:00:00 AM 25.25 77.45 7.28 12.3 -5
6/2/2022 9:15:00 AM 25 77 7.34 12.58 -5
6/2/2022 9:30:00 AM 25.37 77.666 7.34 11.8 -5
6/2/2022 9:45:00 AM 25.11 77.198 7.3 11.76 -5
6/2/2022 10:00:00 AM 25.11 77.198 7.33 11.94 -5
6/2/2022 10:15:00 AM 25.37 77.666 7.37 11.96 -5
6/2/2022 10:30:00 AM 25.11 77.198 7.4 11.9 -5
6/2/2022 10:45:00 AM 25.37 77.666 7.41 12.01 -5
6/2/2022 11:00:00 AM 25.37 77.666 7.33 12.03 -5
6/2/2022 11:15:00 AM 25.25 77.45 7.37 12.06 -5
6/2/2022 11:30:00 AM 25.63 78.134 7.37 12.03 -5
6/2/2022 11:45:00 AM 25.48 77.864 7.39 12.09 -5
6/2/2022 12:00:00 PM 25.25 77.45 7.37 12.17 -5
6/2/2022 12:15:00 PM 25.63 78.134 7.48 12.18 -5
6/2/2022 12:30:00 PM 25.49 77.882 7.46 12.16 -5
6/2/2022 12:45:00 PM 25.37 77.666 7.51 12.22 -5
6/2/2022 1:00:00 PM 25.85 78.53 7.46 12.37 -5
6/2/2022 1:15:00 PM 25.63 78.134 7.56 12.4 -5
6/2/2022 1:30:00 PM 25.48 77.864 7.54 12.48 -5
6/2/2022 1:45:00 PM 25.85 78.53 7.58 12.43 -5
6/2/2022 2:00:00 PM 25.85 78.53 7.62 12.47 -5
6/2/2022 2:15:00 PM 25.74 78.332 7.59 12.64 -5
6/2/2022 2:30:00 PM 25.85 78.53 7.58 12.64 -5
6/2/2022 2:45:00 PM 25.85 78.53 7.6 12.62 -5
6/2/2022 3:00:00 PM 25.74 78.332 7.65 12.78 -5
6/2/2022 3:15:00 PM 25.74 78.332 7.66 12.8 -5
6/2/2022 3:30:00 PM 26 78.8 7.65 12.86 -5
6/2/2022 3:45:00 PM 25.63 78.134 7.67 13.19 -5
6/2/2022 4:00:00 PM 25.48 77.864 7.68 13.67 -5
6/2/2022 4:15:00 PM 25.74 78.332 7.64 14.22 -5
6/2/2022 4:30:00 PM 25.37 77.666 7.64 14.4 -5
6/2/2022 4:45:00 PM 25.48 77.864 7.64 13.71 -5
6/2/2022 5:00:00 PM 25.63 78.134 7.68 13.79 -5
6/2/2022 5:15:00 PM 25.37 77.666 7.65 14.25 -5
6/2/2022 5:30:00 PM 25.48 77.864 7.64 13.82 -5
6/2/2022 5:45:00 PM 25.49 77.882 7.66 13.78 -5
6/2/2022 6:00:00 PM 25.37 77.666 7.71 13.72 -5
6/2/2022 6:15:00 PM 25.48 77.864 7.69 14.11 -5
6/2/2022 6:30:00 PM 25.48 77.864 7.68 13.82 -5
6/2/2022 6:45:00 PM 25.25 77.45 7.73 13.87 -5
6/2/2022 7:00:00 PM 25.25 77.45 7.73 14.04 -5
6/2/2022 7:15:00 PM 25.63 78.134 7.73 14.12 -5
6/2/2022 7:30:00 PM 25.37 77.666 7.7 13.94 -5
6/2/2022 7:45:00 PM 25.25 77.45 7.67 14.01 -5
6/2/2022 8:00:00 PM 25.48 77.864 7.64 13.99 -5
6/2/2022 8:15:00 PM 25.24 77.432 7.64 14.07 -5
6/2/2022 8:30:00 PM 25 77 7.63 13.87 -5
6/2/2022 8:45:00 PM 25.37 77.666 7.61 14.13 -5
6/2/2022 9:00:00 PM 25 77 7.62 14.06 -5
6/2/2022 9:15:00 PM 25.11 77.198 7.6 14.23 -5
6/2/2022 9:30:00 PM 25.11 77.198 7.59 14.06 -5
6/2/2022 9:45:00 PM 24.87 76.766 7.58 14.11 -5
6/2/2022 10:00:00 PM 25 77 7.52 14.06 -5
6/2/2022 10:15:00 PM 25.11 77.198 7.54 14.19 -5
6/2/2022 10:30:00 PM 24.87 76.766 7.52 14.04 -5
6/2/2022 10:45:00 PM 25 77 7.52 14.04 -5
6/2/2022 11:00:00 PM 25 77 7.46 14.02 -5
6/2/2022 11:15:00 PM 24.74 76.532 7.49 14.32 -5
6/2/2022 11:30:00 PM 24.87 76.766 7.43 13.94 -5
6/2/2022 11:45:00 PM 24.74 76.532 7.42 14.04 -5
6/3/2022 12:00:00 AM 24.5 76.1 7.41 14.08 -5
6/3/2022 12:15:00 AM 24.87 76.766 7.4 14.2 -5
6/3/2022 12:30:00 AM 24.62 76.316 7.4 13.92 -5
6/3/2022 12:45:00 AM 24.5 76.1 7.35 13.94 -5
6/3/2022 1:00:00 AM 24.61 76.298 7.36 14.01 -5
6/3/2022 1:15:00 AM 24.37 75.866 7.35 14.13 -5
6/3/2022 1:30:00 AM 24.5 76.1 7.32 13.99 -5
6/3/2022 1:45:00 AM 24.5 76.1 7.3 13.97 -5
6/3/2022 2:00:00 AM 24.24 75.632 7.28 14.01 -5
6/3/2022 2:15:00 AM 24.5 76.1 7.27 14.27 -5
6/3/2022 2:30:00 AM 24.24 75.632 7.24 14.11 -5
6/3/2022 2:45:00 AM 24.13 75.434 7.24 13.99 -5
6/3/2022 3:00:00 AM 24.37 75.866 7.19 13.89 -5
6/3/2022 3:15:00 AM 23.99 75.182 7.19 14 -5
6/3/2022 3:30:00 AM 23.99 75.182 7.18 14.04 -5
6/3/2022 3:45:00 AM 24.13 75.434 7.17 14.1 -5
6/3/2022 4:00:00 AM 23.87 74.966 7.15 14.09 -5
6/3/2022 4:15:00 AM 24.13 75.434 7.15 14.3 -5
6/3/2022 4:30:00 AM 23.88 74.984 7.13 13.99 -5
6/3/2022 4:45:00 AM 23.76 74.768 7.08 13.74 -5
6/3/2022 5:00:00 AM 23.99 75.182 7.08 13.8 -5
6/3/2022 5:15:00 AM 23.76 74.768 7.07 13.92 -5
6/3/2022 5:30:00 AM 23.87 74.966 7.05 13.96 -5
6/3/2022 5:45:00 AM 23.76 74.768 7.05 14.09 -5
6/3/2022 6:00:00 AM 23.5 74.3 7.05 14.2 -5
6/3/2022 6:15:00 AM 23.87 74.966 7.07 14.38 -5
6/3/2022 6:30:00 AM 23.5 74.3 7.04 14.61 -5
6/3/2022 6:45:00 AM 23.76 74.768 7.11 12.02 -5
6/3/2022 7:00:00 AM 23.61 74.498 7.07 12.07 -5
6/3/2022 7:15:00 AM 23.5 74.3 7.03 12.34 -5
6/3/2022 7:30:00 AM 23.61 74.498 7.04 12.31 -5
6/3/2022 7:45:00 AM 23.24 73.832 7.05 12.41 -5
6/3/2022 8:00:00 AM 23.61 74.498 7.06 12.23 -5
6/3/2022 8:15:00 AM 23.24 73.832 7.09 12.21 -5
6/3/2022 8:30:00 AM 23.38 74.084 7.08 12.26 -5
6/3/2022 8:45:00 AM 23.5 74.3 7.12 12.3 -5
6/3/2022 9:00:00 AM 23.13 73.634 7.14 12.2 -5
6/3/2022 9:15:00 AM 23.5 74.3 7.13 12.27 -5
6/3/2022 9:30:00 AM 23.24 73.832 7.18 12.05 -5
6/3/2022 9:45:00 AM 22.86 73.148 7.15 12.19 -5
6/3/2022 10:00:00 AM 23.24 73.832 7.17 12.47 -5
6/3/2022 10:15:00 AM 22.75 72.95 7.15 12.42 -5
6/3/2022 10:30:00 AM 23 73.4 7.19 12.56 -5
6/3/2022 10:45:00 AM 22.87 73.166 7.19 12.62 -5
6/3/2022 11:00:00 AM 22.86 73.148 7.18 12.67 -5
6/3/2022 11:15:00 AM 23.24 73.832 7.23 12.76 -5
6/3/2022 11:30:00 AM 22.86 73.148 7.3 12.74 -5
6/3/2022 11:45:00 AM 23.24 73.832 7.31 12.89 -5
6/3/2022 12:00:00 PM 23.5 74.3 7.27 13.11 -5
6/3/2022 12:15:00 PM 23.38 74.084 7.32 12.91 -5
6/3/2022 12:30:00 PM 23.88 74.984 7.34 12.88 -5
6/3/2022 12:45:00 PM 23.5 74.3 7.32 12.85 -5
6/3/2022 1:00:00 PM 23.76 74.768 7.34 13.06 -5
6/3/2022 1:15:00 PM 23.87 74.966 7.38 12.77 -5
6/3/2022 1:30:00 PM 23.61 74.498 7.4 12.73 -5
6/3/2022 1:45:00 PM 23.87 74.966 7.4 12.81 -5
6/3/2022 2:00:00 PM 23.61 74.498 7.44 12.9 -5
6/3/2022 2:15:00 PM 24.13 75.434 7.43 12.68 -5
6/3/2022 2:30:00 PM 23.87 74.966 7.39 12.9 -5
6/3/2022 2:45:00 PM 24.24 75.632 7.49 12.88 -5
6/3/2022 3:00:00 PM 24.13 75.434 7.51 12.98 -5
6/3/2022 3:15:00 PM 23.99 75.182 7.5 12.84 -5
6/3/2022 3:30:00 PM 24.5 76.1 7.53 12.86 -5
6/3/2022 3:45:00 PM 24.24 75.632 7.52 12.95 -5
6/3/2022 4:00:00 PM 24.5 76.1 7.5 13.73 -5
6/3/2022 4:15:00 PM 24.37 75.866 7.5 13.44 -5
6/3/2022 4:30:00 PM 24.24 75.632 7.56 13.92 -5
6/3/2022 4:45:00 PM 24.62 76.316 7.54 13.75 -5
6/3/2022 5:00:00 PM 24.37 75.866 7.56 13.93 -5
6/3/2022 5:15:00 PM 24.5 76.1 7.62 13.95 -5
6/3/2022 5:30:00 PM 24.5 76.1 7.63 13.76 -5
6/3/2022 5:45:00 PM 24.24 75.632 7.65 13.63 -5
6/3/2022 6:00:00 PM 24.62 76.316 7.6 13.7 -5
6/3/2022 6:15:00 PM 24.37 75.866 7.61 13.67 -5
6/3/2022 6:30:00 PM 24.24 75.632 7.65 13.82 -5
6/3/2022 6:45:00 PM 24.5 76.1 7.68 13.74 -5
6/3/2022 7:00:00 PM 24.5 76.1 7.67 13.93 -5
6/3/2022 7:15:00 PM 24.24 75.632 7.66 13.87 -5
6/3/2022 7:30:00 PM 24.5 76.1 7.75 14.04 -5
6/3/2022 7:45:00 PM 24.5 76.1 7.69 13.96 -5
6/3/2022 8:00:00 PM 24.24 75.632 7.74 14.09 -5
6/3/2022 8:15:00 PM 24.13 75.434 7.71 14 -5
6/3/2022 8:30:00 PM 24.37 75.866 7.75 14.12 -5
6/3/2022 8:45:00 PM 24.37 75.866 7.74 14.16 -5
6/3/2022 9:00:00 PM 24.13 75.434 7.77 14.26 -5
6/3/2022 9:15:00 PM 24.24 75.632 7.67 14.13 -5
6/3/2022 9:30:00 PM 24.24 75.632 7.72 14.48 -5
6/3/2022 9:45:00 PM 23.99 75.182 7.73 14.39 -5
6/3/2022 10:00:00 PM 24.24 75.632 7.66 14.46 -5
6/3/2022 10:15:00 PM 24.13 75.434 7.71 14.34 -5
6/3/2022 10:30:00 PM 23.87 74.966 7.6 14.45 -5
6/3/2022 10:45:00 PM 24.24 75.632 7.6 14.43 -5
6/3/2022 11:00:00 PM 23.87 74.966 7.64 14.42 -5
6/3/2022 11:15:00 PM 23.99 75.182 7.66 14.6 -5
6/3/2022 11:30:00 PM 24.01 75.218 7.61 14.44 -5
6/3/2022 11:45:00 PM 23.76 74.768 7.6 14.52 -5
6/4/2022 12:00:00 AM 24.13 75.434 7.6 14.6 -5
6/4/2022 12:15:00 AM 23.76 74.768 7.6 14.51 -5
6/4/2022 12:30:00 AM 23.61 74.498 7.58 14.57 -5
6/4/2022 12:45:00 AM 23.99 75.182 7.57 14.48 -5
6/4/2022 1:00:00 AM 23.61 74.498 7.54 14.69 -5
6/4/2022 1:15:00 AM 23.87 74.966 7.56 14.8 -5
6/4/2022 1:30:00 AM 23.76 74.768 7.56 14.8 -5
6/4/2022 1:45:00 AM 23.38 74.084 7.55 14.76 -5
6/4/2022 2:00:00 AM 23.88 74.984 7.56 15 -5
6/4/2022 2:15:00 AM 23.38 74.084 7.54 14.86 -5
6/4/2022 2:30:00 AM 23.5 74.3 7.5 14.91 -5
6/4/2022 2:45:00 AM 23.5 74.3 7.51 14.97 -5
6/4/2022 3:00:00 AM 23.13 73.634 7.49 14.97 -5
6/4/2022 3:15:00 AM 23.5 74.3 7.48 14.88 -5
6/4/2022 3:30:00 AM 23.24 73.832 7.47 14.84 -5
6/4/2022 3:45:00 AM 23.24 73.832 7.47 14.69 -5
6/4/2022 4:00:00 AM 23.38 74.084 7.43 14.68 -5
6/4/2022 4:15:00 AM 23 73.4 7.43 14.58 -5
6/4/2022 4:30:00 AM 23.38 74.084 7.41 14.35 -5
6/4/2022 4:45:00 AM 23 73.4 7.38 24.23 -5
6/4/2022 5:00:00 AM 23.13 73.634 7.36 11.6 -5
6/4/2022 5:15:00 AM 23 73.4 7.36 11.84 -5
6/4/2022 5:30:00 AM 22.86 73.148 7.33 11.96 -5
6/4/2022 5:45:00 AM 23.13 73.634 7.3 12.22 -5
6/4/2022 6:00:00 AM 22.63 72.734 7.29 13.01 -5
6/4/2022 6:15:00 AM 22.86 73.148 7.27 12.78 -5
6/4/2022 6:30:00 AM 22.62 72.716 7.25 12.87 -5
6/4/2022 6:45:00 AM 22.62 72.716 7.24 12.99 -5
6/4/2022 7:00:00 AM 22.87 73.166 7.21 13.03 -5
6/4/2022 7:15:00 AM 22.36 72.248 7.22 13.11 -5
6/4/2022 7:30:00 AM 22.75 72.95 7.21 13.1 -5
6/4/2022 7:45:00 AM 22.36 72.248 7.18 13.11 -5
6/4/2022 8:00:00 AM 22.63 72.734 7.21 13.3 -5
6/4/2022 8:15:00 AM 22.49 72.482 7.23 13.29 -5
6/4/2022 8:30:00 AM 22.49 72.482 7.23 13.19 -5
6/4/2022 8:45:00 AM 22.63 72.734 7.24 12.79 -5
6/4/2022 9:00:00 AM 22.36 72.248 7.26 12.92 -5
6/4/2022 9:15:00 AM 22.75 72.95 7.24 12.94 -5
6/4/2022 9:30:00 AM 22.49 72.482 7.25 12.54 -5
6/4/2022 9:45:00 AM 22.75 72.95 7.27 12.59 -5
6/4/2022 10:00:00 AM 22.62 72.716 7.26 12.65 -5
6/4/2022 10:15:00 AM 22.75 72.95 7.27 12.79 -5
6/4/2022 10:30:00 AM 22.86 73.148 7.31 12.9 -5
6/4/2022 10:45:00 AM 22.62 72.716 7.32 13.17 -5
6/4/2022 11:00:00 AM 23 73.4 7.33 13.14 -5
6/4/2022 11:15:00 AM 22.75 72.95 7.35 13.14 -5
6/4/2022 11:30:00 AM 23 73.4 7.34 13.19 -5
6/4/2022 11:45:00 AM 23.13 73.634 7.38 13.16 -5
6/4/2022 12:00:00 PM 23 73.4 7.38 13.36 -5
6/4/2022 12:15:00 PM 23.38 74.084 7.4 13.28 -5
6/4/2022 12:30:00 PM 23 73.4 7.41 13.33 -5
6/4/2022 12:45:00 PM 23.38 74.084 7.43 14.18 -5
6/4/2022 1:00:00 PM 23.24 73.832 7.45 14.86 -5
6/4/2022 1:15:00 PM 23.38 74.084 7.49 14.35 -5
6/4/2022 1:30:00 PM 23.61 74.498 7.49 14.19 -5
6/4/2022 1:45:00 PM 23.38 74.084 7.53 13.77 -5
6/4/2022 2:00:00 PM 23.76 74.768 7.52 13.46 -5
6/4/2022 2:15:00 PM 23.5 74.3 7.55 13.79 -5
6/4/2022 2:30:00 PM 23.76 74.768 7.55 13.78 -5
6/4/2022 2:45:00 PM 23.76 74.768 7.6 13.76 -5
6/4/2022 3:00:00 PM 23.61 74.498 7.63 14.27 -5
6/4/2022 3:15:00 PM 24.13 75.434 7.66 14.02 -5
6/4/2022 3:30:00 PM 23.87 74.966 7.72 14.29 -5
6/4/2022 3:45:00 PM 23.99 75.182 7.73 14.99 -5
6/4/2022 4:00:00 PM 24.24 75.632 7.74 16.83 -5
6/4/2022 4:15:00 PM 23.99 75.182 7.78 15.46 -5
6/4/2022 4:30:00 PM 24.24 75.632 7.79 15.57 -5
6/4/2022 4:45:00 PM 24.37 75.866 7.81 15.58 -5
6/4/2022 5:00:00 PM 24.24 75.632 7.84 15.67 -5
6/4/2022 5:15:00 PM 24.13 75.434 7.84 15.52 -5
6/4/2022 5:30:00 PM 24.5 76.1 7.86 15.43 -5
6/4/2022 5:45:00 PM 24.5 76.1 7.9 15.35 -5
6/4/2022 6:00:00 PM 24.37 75.866 7.89 15.6 -5
6/4/2022 6:15:00 PM 24.34 75.812 7.94 15.25 -5
6/4/2022 6:30:00 PM 24.24 75.632 7.94 15.01 -5
6/4/2022 6:45:00 PM 24.5 76.1 7.94 15.09 -5
6/4/2022 7:00:00 PM 24.61 76.298 7.95 15.29 -5
6/4/2022 7:15:00 PM 24.37 75.866 7.94 14.97 -5
6/4/2022 7:30:00 PM 24.24 75.632 7.96 15.06 -5
6/4/2022 7:45:00 PM 24.24 75.632 7.97 15.06 -5
6/4/2022 8:00:00 PM 24.74 76.532 7.96 15.16 -5
6/4/2022 8:15:00 PM 24.5 76.1 7.95 14.92 -5
6/4/2022 8:30:00 PM 24.24 75.632 7.94 14.86 -5
6/4/2022 8:45:00 PM 24.21 75.578 7.94 15.16 -5
6/4/2022 9:00:00 PM 24.13 75.434 7.92 15.36 -5
6/4/2022 9:15:00 PM 24.62 76.316 7.92 15.15 -5
6/4/2022 9:30:00 PM 24.24 75.632 7.91 15.08 -5
6/4/2022 9:45:00 PM 23.61 74.498 7.91 15.06 -5
6/4/2022 10:00:00 PM 23.24 73.832 7.87 15.27 -5
6/4/2022 10:15:00 PM 23.98 75.164 7.86 14.94 -5
6/4/2022 10:30:00 PM 23.99 75.182 7.87 14.82 -5
6/4/2022 10:45:00 PM 23.76 74.768 7.83 14.9 -5
6/4/2022 11:00:00 PM 23.61 74.498 7.8 14.87 -5
6/4/2022 11:15:00 PM 23.99 75.182 7.8 14.42 -5
6/4/2022 11:30:00 PM 23.61 74.498 7.78 14.48 -5
6/4/2022 11:45:00 PM 23.5 74.3 7.77 14.44 -5
6/5/2022 12:00:00 AM 23.87 74.966 7.74 14.55 -5
6/5/2022 12:15:00 AM 23.61 74.498 7.72 14.36 -5
6/5/2022 12:30:00 AM 23.38 74.084 7.7 14.38 -5
6/5/2022 12:45:00 AM 23.76 74.768 7.71 14.26 -5
6/5/2022 1:00:00 AM 23.24 73.832 7.69 14.57 -5
6/5/2022 1:15:00 AM 23.13 73.634 7.68 14.42 -5
6/5/2022 1:30:00 AM 23.38 74.084 7.66 14.32 -5
6/5/2022 1:45:00 AM 23.13 73.634 7.65 14.36 -5
6/5/2022 2:00:00 AM 23.13 73.634 7.64 14.51 -5
6/5/2022 2:15:00 AM 22.86 73.148 7.6 14.28 -5
6/5/2022 2:30:00 AM 23.13 73.634 7.6 14.29 -5
6/5/2022 2:45:00 AM 23.5 74.3 7.58 14.13 -5
6/5/2022 3:00:00 AM 23 73.4 7.56 14.28 -5
6/5/2022 3:15:00 AM 23.13 73.634 7.55 14.15 -5
6/5/2022 3:30:00 AM 23.13 73.634 7.54 14.14 -5
6/5/2022 3:45:00 AM 23 73.4 7.54 14.13 -5
6/5/2022 4:00:00 AM 23.38 74.084 7.53 14.22 -5
6/5/2022 4:15:00 AM 22.87 73.166 7.52 14.08 -5
6/5/2022 4:30:00 AM 23.13 73.634 7.5 14.05 -5
6/5/2022 4:45:00 AM 23.13 73.634 7.48 14.07 -5
6/5/2022 5:00:00 AM 23 73.4 7.43 11.5 -5
6/5/2022 5:15:00 AM 23.13 73.634 7.43 11.39 -5
6/5/2022 5:30:00 AM 22.75 72.95 7.42 11.56 -5
6/5/2022 5:45:00 AM 23.13 73.634 7.43 12.03 -5
6/5/2022 6:00:00 AM 22.75 72.95 7.4 12 -5
6/5/2022 6:15:00 AM 22.86 73.148 7.4 12.19 -5
6/5/2022 6:30:00 AM 22.86 73.148 7.39 12.32 -5
6/5/2022 6:45:00 AM 22.49 72.482 7.38 12.54 -5
6/5/2022 7:00:00 AM 22.75 72.95 7.38 12.26 -5
6/5/2022 7:15:00 AM 22.25 72.05 7.38 11.95 -5
6/5/2022 7:30:00 AM 22.63 72.734 7.37 11.45 -5
6/5/2022 7:45:00 AM 22.49 72.482 7.38 11.64 -5
6/5/2022 8:00:00 AM 22.36 72.248 7.38 12.4 -5
6/5/2022 8:15:00 AM 22.63 72.734 7.4 12.28 -5
6/5/2022 8:30:00 AM 22.36 72.248 7.41 12.23 -5
6/5/2022 8:45:00 AM 22.62 72.716 7.43 11.65 -5
6/5/2022 9:00:00 AM 22.11 71.798 7.44 11.63 -5
6/5/2022 9:15:00 AM 22.49 72.482 7.44 11.62 -5
6/5/2022 9:30:00 AM 22.36 72.248 7.45 11.64 -5
6/5/2022 9:45:00 AM 22.49 72.482 7.46 11.63 -5
6/5/2022 10:00:00 AM 22.49 72.482 7.46 11.63 -5
6/5/2022 10:15:00 AM 22.49 72.482 7.48 11.65 -5
6/5/2022 10:30:00 AM 22.63 72.734 7.5 11.7 -5
6/5/2022 10:45:00 AM 22.49 72.482 7.5 11.82 -5
6/5/2022 11:00:00 AM 22.86 73.148 7.52 11.66 -5
6/5/2022 11:15:00 AM 22.49 72.482 7.53 11.75 -5
6/5/2022 11:30:00 AM 22.86 73.148 7.54 11.69 -5
6/5/2022 11:45:00 AM 22.62 72.716 7.57 11.89 -5
6/5/2022 12:00:00 PM 22.87 73.166 7.59 12.41 -5
6/5/2022 12:15:00 PM 22.87 73.166 7.61 12.2 -5
6/5/2022 12:30:00 PM 22.75 72.95 7.65 12.3 -5
6/5/2022 12:45:00 PM 23 73.4 7.67 12.23 -5
6/5/2022 1:00:00 PM 22.86 73.148 7.69 12.17 -5
6/5/2022 1:15:00 PM 23.24 73.832 7.71 12.25 -5
6/5/2022 1:30:00 PM 22.75 72.95 7.74 12.23 -5
6/5/2022 1:45:00 PM 23.24 73.832 7.76 12.52 -5
6/5/2022 2:00:00 PM 22.86 73.148 7.77 12.22 -5
6/5/2022 2:15:00 PM 23.24 73.832 7.79 12.06 -5
6/5/2022 2:30:00 PM 23.13 73.634 7.8 12.15 -5
6/5/2022 2:45:00 PM 23.38 74.084 7.81 12.32 -5
6/5/2022 3:00:00 PM 23.24 73.832 7.83 12.24 -5
6/5/2022 3:15:00 PM 23.38 74.084 7.84 12.44 -5
6/5/2022 3:30:00 PM 23.5 74.3 7.85 14.52 -5
6/5/2022 3:45:00 PM 23.38 74.084 7.88 14.34 -5
6/5/2022 4:00:00 PM 23.76 74.768 7.9 13.55 -5
6/5/2022 4:15:00 PM 23.5 74.3 7.91 13.64 -5
6/5/2022 4:30:00 PM 23.61 74.498 7.92 13.63 -5
6/5/2022 4:45:00 PM 23.87 74.966 7.93 13.99 -5
6/5/2022 5:00:00 PM 23.61 74.498 7.95 13.84 -5
6/5/2022 5:15:00 PM 23.88 74.984 7.96 13.69 -5
6/5/2022 5:30:00 PM 23.99 75.182 7.97 13.55 -5
6/5/2022 5:45:00 PM 23.76 74.768 8.01 13.67 -5
6/5/2022 6:00:00 PM 23.99 75.182 8.01 13.66 -5
6/5/2022 6:15:00 PM 23.99 75.182 8.03 13.62 -5
6/5/2022 6:30:00 PM 23.87 74.966 8.04 13.59 -5
6/5/2022 6:45:00 PM 23.76 74.768 8.03 13.68 -5
6/5/2022 7:00:00 PM 24.24 75.632 8.03 13.66 -5
6/5/2022 7:15:00 PM 23.87 74.966 8.05 13.56 -5
6/5/2022 7:30:00 PM 23.76 74.768 8.05 13.52 -5
6/5/2022 7:45:00 PM 23.76 74.768 8.05 13.61 -5
6/5/2022 8:00:00 PM 24.13 75.434 8.06 13.62 -5
6/5/2022 8:15:00 PM 23.76 74.768 8.06 13.43 -5
6/5/2022 8:30:00 PM 23.61 74.498 8.07 13.44 -5
6/5/2022 8:45:00 PM 23.5 74.3 8.07 13.56 -5
6/5/2022 9:00:00 PM 23.87 74.966 8.05 13.56 -5
6/5/2022 9:15:00 PM 23.76 74.768 8.05 13.55 -5
6/5/2022 9:30:00 PM 23.5 74.3 8.05 13.41 -5
6/5/2022 9:45:00 PM 23.5 74.3 8.04 13.51 -5
6/5/2022 10:00:00 PM 23.87 74.966 8.03 13.5 -5
6/5/2022 10:15:00 PM 23.61 74.498 8.02 13.39 -5
6/5/2022 10:30:00 PM 23.38 74.084 8.01 13.35 -5
6/5/2022 10:45:00 PM 23.5 74.3 8.01 13.33 -5
6/5/2022 11:00:00 PM 23.86 74.948 7.99 13.22 -5
6/5/2022 11:15:00 PM 23.5 74.3 7.98 13.28 -5
6/5/2022 11:30:00 PM 23.38 74.084 7.96 13.27 -5
6/5/2022 11:45:00 PM 23.76 74.768 7.95 13.21 -5
6/6/2022 12:00:00 AM 23.38 74.084 7.94 13.09 -5
6/6/2022 12:15:00 AM 23.24 73.832 7.93 13.18 -5
6/6/2022 12:30:00 AM 23.61 74.498 7.9 13.11 -5
6/6/2022 12:45:00 AM 23.24 73.832 7.89 13.19 -5
6/6/2022 1:00:00 AM 23.38 74.084 7.87 13.02 -5
6/6/2022 1:15:00 AM 23.38 74.084 7.86 13.11 -5
6/6/2022 1:30:00 AM 23 73.4 7.84 13.19 -5
6/6/2022 1:45:00 AM 23.5 74.3 7.82 13.13 -5
6/6/2022 2:00:00 AM 23.13 73.634 7.81 13.2 -5
6/6/2022 2:15:00 AM 23.13 73.634 7.81 13.23 -5
6/6/2022 2:30:00 AM 23.38 74.084 7.79 13.08 -5
6/6/2022 2:45:00 AM 23 73.4 7.77 13.18 -5
6/6/2022 3:00:00 AM 23.13 73.634 7.75 13.06 -5
6/6/2022 3:15:00 AM 23.13 73.634 7.75 13.13 -5
6/6/2022 3:30:00 AM 22.75 72.95 7.72 13.1 -5
6/6/2022 3:45:00 AM 23.24 73.832 7.7 13.03 -5
6/6/2022 4:00:00 AM 22.75 72.95 7.68 13.06 -5
6/6/2022 4:15:00 AM 23 73.4 7.66 12.94 -5
6/6/2022 4:30:00 AM 22.87 73.166 7.65 12.75 -5
6/6/2022 4:45:00 AM 22.62 72.716 7.63 12.9 -5
6/6/2022 5:00:00 AM 23 73.4 7.6 12.84 -5
6/6/2022 5:15:00 AM 22.49 72.482 7.56 13.17 -5
6/6/2022 5:30:00 AM 22.63 72.734 7.54 13.17 -5
6/6/2022 5:45:00 AM 22.63 72.734 7.51 13.08 -5
6/6/2022 6:00:00 AM 22.36 72.248 7.49 13.35 -5
6/6/2022 6:15:00 AM 22.75 72.95 7.46 13.28 -5
6/6/2022 6:30:00 AM 22.25 72.05 7.45 13.34 -5
6/6/2022 6:45:00 AM 22.49 72.482 7.43 13.35 -5
6/6/2022 7:00:00 AM 22.36 72.248 7.42 13.11 -5
6/6/2022 7:15:00 AM 22.11 71.798 7.54 11.02 -5
6/6/2022 7:30:00 AM 22.49 72.482 7.59 10.1 -5
6/6/2022 7:45:00 AM 22.11 71.798 7.6 10.66 -5
6/6/2022 8:00:00 AM 22.36 72.248 7.61 10.53 -5
6/6/2022 8:15:00 AM 22.36 72.248 7.63 10.16 -5
6/6/2022 8:30:00 AM 22.11 71.798 7.63 10.29 -5
6/6/2022 8:45:00 AM 22.49 72.482 7.64 10.33 -5
6/6/2022 9:00:00 AM 22.11 71.798 7.65 10.27 -5
6/6/2022 9:15:00 AM 22.36 72.248 7.66 10.12 -5
6/6/2022 9:30:00 AM 22.36 72.248 7.67 10.21 -5
6/6/2022 9:45:00 AM 22.25 72.05 7.66 10.26 -5
6/6/2022 10:00:00 AM 22.49 72.482 7.68 10.22 -5
6/6/2022 10:15:00 AM 22.11 71.798 7.7 10.33 -5
6/6/2022 10:30:00 AM 22.49 72.482 7.7 10.23 -5
6/6/2022 10:45:00 AM 22.25 72.05 7.71 10.29 -5
6/6/2022 11:00:00 AM 22.49 72.482 7.73 10.35 -5
6/6/2022 11:15:00 AM 22.36 72.248 7.77 10.38 -5
6/6/2022 11:30:00 AM 22.25 72.05 7.78 10.64 -5
6/6/2022 11:45:00 AM 22.62 72.716 7.79 10.65 -5
6/6/2022 12:00:00 PM 22.11 71.798 7.82 10.48 -5
6/6/2022 12:15:00 PM 22.62 72.716 7.85 10.53 -5
6/6/2022 12:30:00 PM 22.36 72.248 7.88 10.46 -5
6/6/2022 12:45:00 PM 22.49 72.482 7.89 10.52 -5
6/6/2022 1:00:00 PM 22.75 72.95 7.92 10.51 -5
6/6/2022 1:15:00 PM 22.49 72.482 7.92 10.53 -5
6/6/2022 1:30:00 PM 22.99 73.382 7.93 10.57 -5
6/6/2022 1:45:00 PM 22.62 72.716 7.96 10.71 -5
6/6/2022 2:00:00 PM 22.99 73.382 7.97 10.67 -5
6/6/2022 2:15:00 PM 22.87 73.166 7.96 10.71 -5
6/6/2022 2:30:00 PM 23 73.4 7.99 10.81 -5
6/6/2022 2:45:00 PM 23.24 73.832 7.99 11.18 -5
6/6/2022 3:00:00 PM 23 73.4 7.96 12.3 -5
6/6/2022 3:15:00 PM 23.5 74.3 8.01 12.13 -5
6/6/2022 3:30:00 PM 23.24 73.832 8.03 11.71 -5
6/6/2022 3:45:00 PM 23.24 73.832 8.05 11.7 -5
6/6/2022 4:00:00 PM 23.5 74.3 8.06 11.95 -5
6/6/2022 4:15:00 PM 23.24 73.832 8.07 11.72 -5
6/6/2022 4:30:00 PM 23.24 73.832 8.06 12.16 -5
6/6/2022 4:45:00 PM 23.76 74.768 8.09 12.22 -5
6/6/2022 5:00:00 PM 23.38 74.084 8.11 11.9 -5
6/6/2022 5:15:00 PM 23.24 73.832 8.12 11.92 -5
6/6/2022 5:30:00 PM 23.76 74.768 8.12 11.86 -5
6/6/2022 5:45:00 PM 23.5 74.3 8.12 11.98 -5
6/6/2022 6:00:00 PM 23.38 74.084 8.12 11.86 -5
6/6/2022 6:15:00 PM 23.38 74.084 8.13 11.8 -5
6/6/2022 6:30:00 PM 23.24 73.832 8.14 11.82 -5
6/6/2022 6:45:00 PM 23.87 74.966 8.15 12 -5
6/6/2022 7:00:00 PM 23.5 74.3 8.14 11.93 -5
6/6/2022 7:15:00 PM 23.38 74.084 8.14 11.8 -5
6/6/2022 7:30:00 PM 23.24 73.832 8.13 11.74 -5
6/6/2022 7:45:00 PM 23.5 74.3 8.14 11.93 -5
6/6/2022 8:00:00 PM 23.5 74.3 8.13 11.83 -5
6/6/2022 8:15:00 PM 23.24 73.832 8.13 12.06 -5
6/6/2022 8:30:00 PM 23.13 73.634 8.12 11.66 -5
6/6/2022 8:45:00 PM 23.13 73.634 8.12 11.65 -5
6/6/2022 9:00:00 PM 23.61 74.498 8.12 11.36 -5
6/6/2022 9:15:00 PM 23.24 73.832 8.11 11.46 -5
6/6/2022 9:30:00 PM 23 73.4 8.11 11.4 -5
6/6/2022 9:45:00 PM 23.24 73.832 8.11 11.58 -5
6/6/2022 10:00:00 PM 23.24 73.832 8.09 11.36 -5
6/6/2022 10:15:00 PM 22.86 73.148 8.09 11.33 -5
6/6/2022 10:30:00 PM 23 73.4 8.06 11.34 -5
6/6/2022 10:45:00 PM 23.13 73.634 8.05 11.4 -5
6/6/2022 11:00:00 PM 22.75 72.95 8.01 11.3 -5
6/6/2022 11:15:00 PM 23.13 73.634 7.99 11.26 -5
6/6/2022 11:30:00 PM 22.86 73.148 8 11.15 -5
6/6/2022 11:45:00 PM 22.63 72.734 7.96 11.37 -5
6/7/2022 12:00:00 AM 23 73.4 7.96 11.21 -5
6/7/2022 12:15:00 AM 22.62 72.716 7.92 11.29 -5
6/7/2022 12:30:00 AM 22.62 72.716 7.91 11.37 -5
6/7/2022 12:45:00 AM 22.86 73.148 7.92 11.45 -5
6/7/2022 1:00:00 AM 22.36 72.248 7.9 11.26 -5
6/7/2022 1:15:00 AM 22.63 72.734 7.88 11.17 -5
6/7/2022 1:30:00 AM 22.49 72.482 7.86 11.29 -5
6/7/2022 1:45:00 AM 22.25 72.05 7.84 11.39 -5
6/7/2022 2:00:00 AM 22.62 72.716 7.83 11.26 -5
6/7/2022 2:15:00 AM 22.25 72.05 7.83 11.29 -5
6/7/2022 2:30:00 AM 22.49 72.482 7.81 11.34 -5
6/7/2022 2:45:00 AM 22.25 72.05 7.8 11.49 -5
6/7/2022 3:00:00 AM 22.25 72.05 7.76 11.28 -5
6/7/2022 3:15:00 AM 22.36 72.248 7.77 11.32 -5
6/7/2022 3:30:00 AM 21.96 71.528 7.75 11.32 -5
6/7/2022 3:45:00 AM 22.36 72.248 7.74 11.56 -5
6/7/2022 4:00:00 AM 21.99 71.582 7.71 11.36 -5
6/7/2022 4:15:00 AM 21.99 71.582 7.71 11.41 -5
6/7/2022 4:30:00 AM 22.11 71.798 7.69 11.37 -5
6/7/2022 4:45:00 AM 21.73 71.114 7.66 11.52 -5
6/7/2022 5:00:00 AM 22.25 72.05 7.64 11.69 -5
6/7/2022 5:15:00 AM 21.87 71.366 7.59 11.73 -5
6/7/2022 5:30:00 AM 21.99 71.582 7.58 11.89 -5
6/7/2022 5:45:00 AM 21.87 71.366 7.58 12.11 -5
6/7/2022 6:00:00 AM 21.73 71.114 7.53 11.8 -5
6/7/2022 6:15:00 AM 21.99 71.582 7.54 11.77 -5
6/7/2022 6:30:00 AM 21.5 70.7 7.51 11.47 -5
6/7/2022 6:45:00 AM 21.87 71.366 7.58 10.75 -5
6/7/2022 7:00:00 AM 21.62 70.916 7.56 10.58 -5
6/7/2022 7:15:00 AM 21.62 70.916 7.53 10.62 -5
6/7/2022 7:30:00 AM 21.73 71.114 7.53 10.62 -5
6/7/2022 7:45:00 AM 21.36 70.448 7.52 10.77 -5
6/7/2022 8:00:00 AM 21.87 71.366 7.5 10.53 -5
6/7/2022 8:15:00 AM 21.24 70.232 7.5 10.5 -5
6/7/2022 8:30:00 AM 21.62 70.916 7.48 10.87 -5
6/7/2022 8:45:00 AM 21.36 70.448 7.49 10.03 -5
6/7/2022 9:00:00 AM 21.5 70.7 7.49 10.03 -5
6/7/2022 9:15:00 AM 21.36 70.448 7.48 9.97 -5
6/7/2022 9:30:00 AM 21.36 70.448 7.5 10.13 -5
6/7/2022 9:45:00 AM 21.24 70.232 7.48 9.96 -5
6/7/2022 10:00:00 AM 21.24 70.232 7.48 10.06 -5
6/7/2022 10:15:00 AM 21.36 70.448 7.49 10.04 -5
6/7/2022 10:30:00 AM 21.12 70.016 7.48 10.6 -5
6/7/2022 10:45:00 AM 21.5 70.7 7.53 10.23 -5
6/7/2022 11:00:00 AM 20.98 69.764 7.54 10.29 -5
6/7/2022 11:15:00 AM 21.5 70.7 7.55 10.19 -5
6/7/2022 11:30:00 AM 21.11 69.998 7.57 10.17 -5
6/7/2022 11:45:00 AM 21.5 70.7 7.57 10.5 -5
6/7/2022 12:00:00 PM 21.24 70.232 7.58 10.26 -5
6/7/2022 12:15:00 PM 21.5 70.7 7.6 10.35 -5
6/7/2022 12:30:00 PM 21.5 70.7 7.59 10.22 -5
6/7/2022 12:45:00 PM 21.36 70.448 7.61 10.12 -5
6/7/2022 1:00:00 PM 21.62 70.916 7.62 10.14 -5
6/7/2022 1:15:00 PM 21.24 70.232 7.62 10.1 -5
6/7/2022 1:30:00 PM 21.73 71.114 7.62 10.64 -5
6/7/2022 1:45:00 PM 21.36 70.448 7.59 10.55 -5
6/7/2022 2:00:00 PM 21.62 70.916 7.61 10.64 -5
6/7/2022 2:15:00 PM 21.36 70.448 7.61 10.14 -5
6/7/2022 2:30:00 PM 21.5 70.7 7.62 10.21 -5
6/7/2022 2:45:00 PM 21.36 70.448 7.6 10.21 -5
6/7/2022 3:00:00 PM 21.36 70.448 7.61 10.32 -5
6/7/2022 3:15:00 PM 21.5 70.7 7.6 10.4 -5
6/7/2022 3:30:00 PM 21.24 70.232 7.61 10.44 -5
6/7/2022 3:45:00 PM 21.62 70.916 7.61 10.47 -5
6/7/2022 4:00:00 PM 21.24 70.232 7.6 11.16 -5
6/7/2022 4:15:00 PM 21.73 71.114 7.62 10.89 -5
6/7/2022 4:30:00 PM 21.24 70.232 7.6 11.2 -5
6/7/2022 4:45:00 PM 21.5 70.7 7.59 11.04 -5
6/7/2022 5:00:00 PM 21.36 70.448 7.59 11 -5
6/7/2022 5:15:00 PM 21.25 70.25 7.58 10.9 -5
6/7/2022 5:30:00 PM 21.61 70.898 7.6 10.93 -5
6/7/2022 5:45:00 PM 21.12 70.016 7.59 10.62 -5
6/7/2022 6:00:00 PM 21.5 70.7 7.6 10.71 -5
6/7/2022 6:15:00 PM 21.25 70.25 7.6 10.61 -5
6/7/2022 6:30:00 PM 21.24 70.232 7.58 11.09 -5
6/7/2022 6:45:00 PM 21.5 70.7 7.6 10.83 -5
6/7/2022 7:00:00 PM 21.11 69.998 7.61 10.76 -5
6/7/2022 7:15:00 PM 21.5 70.7 7.61 10.37 -5
6/7/2022 7:30:00 PM 21.11 69.998 7.6 10.43 -5
6/7/2022 7:45:00 PM 21.5 70.7 7.59 10.51 -5
6/7/2022 8:00:00 PM 21.11 69.998 7.57 11.02 -5
6/7/2022 8:15:00 PM 21.24 70.232 7.56 10.83 -5
6/7/2022 8:30:00 PM 21.36 70.448 7.56 10.92 -5
6/7/2022 8:45:00 PM 21.12 70.016 7.55 10.83 -5
6/7/2022 9:00:00 PM 21.36 70.448 7.54 11.01 -5
6/7/2022 9:15:00 PM 20.98 69.764 7.53 10.82 -5
6/7/2022 9:30:00 PM 21.5 70.7 7.51 10.79 -5
6/7/2022 9:45:00 PM 20.98 69.764 7.49 10.69 -5
6/7/2022 10:00:00 PM 21.36 70.448 7.49 10.81 -5
6/7/2022 10:15:00 PM 21.24 70.232 7.48 10.76 -5
6/7/2022 10:30:00 PM 20.98 69.764 7.47 10.83 -5
6/7/2022 10:45:00 PM 21.36 70.448 7.44 10.79 -5
6/7/2022 11:00:00 PM 20.86 69.548 7.46 10.86 -5
6/7/2022 11:15:00 PM 21.36 70.448 7.44 10.86 -5
6/7/2022 11:30:00 PM 20.98 69.764 7.41 10.8 -5
6/7/2022 11:45:00 PM 21.25 70.25 7.38 10.72 -5
6/8/2022 12:00:00 AM 21.11 69.998 7.39 10.66 -5
6/8/2022 12:15:00 AM 20.98 69.764 7.37 10.72 -5
6/8/2022 12:30:00 AM 21.25 70.25 7.36 10.75 -5
6/8/2022 12:45:00 AM 20.74 69.332 7.35 10.68 -5
6/8/2022 1:00:00 AM 21.24 70.232 7.33 10.79 -5
6/8/2022 1:15:00 AM 20.87 69.566 7.3 10.75 -5
6/8/2022 1:30:00 AM 20.98 69.764 7.29 10.94 -5
6/8/2022 1:45:00 AM 20.98 69.764 7.27 10.81 -5
6/8/2022 2:00:00 AM 20.87 69.566 7.25 10.83 -5
6/8/2022 2:15:00 AM 21.11 69.998 7.24 11.02 -5
6/8/2022 2:30:00 AM 20.74 69.332 7.24 10.98 -5
6/8/2022 2:45:00 AM 21.11 69.998 7.22 10.92 -5
6/8/2022 3:00:00 AM 20.74 69.332 7.2 11.05 -5
6/8/2022 3:15:00 AM 20.86 69.548 7.2 10.97 -5
6/8/2022 3:30:00 AM 20.98 69.764 7.19 11.07 -5
6/8/2022 3:45:00 AM 20.61 69.098 7.18 10.84 -5
6/8/2022 4:00:00 AM 21.11 69.998 7.17 10.87 -5
6/8/2022 4:15:00 AM 20.74 69.332 7.16 10.98 -5
6/8/2022 4:30:00 AM 20.98 69.764 7.16 10.91 -5
6/8/2022 4:45:00 AM 20.87 69.566 7.16 10.89 -5
6/8/2022 5:00:00 AM 20.74 69.332 7.15 10.86 -5
6/8/2022 5:15:00 AM 20.98 69.764 7.15 10.9 -5
6/8/2022 5:30:00 AM 20.6 69.08 7.14 11.02 -5
6/8/2022 5:45:00 AM 20.98 69.764 7.14 10.99 -5
6/8/2022 6:00:00 AM 20.61 69.098 7.13 10.98 -5
6/8/2022 6:15:00 AM 20.74 69.332 7.1 10.93 -5
6/8/2022 6:30:00 AM 20.74 69.332 7.13 10.58 -5
6/8/2022 6:45:00 AM 20.36 68.648 7.11 10.11 -5
6/8/2022 7:00:00 AM 20.87 69.566 7.11 10.09 -5
6/8/2022 7:15:00 AM 20.37 68.666 7.1 10.31 -5
6/8/2022 7:30:00 AM 20.87 69.566 7.1 10.47 -5
6/8/2022 7:45:00 AM 20.6 69.08 7.11 8.89 -5
6/8/2022 8:00:00 AM 20.61 69.098 7.11 8.84 -5
6/8/2022 8:15:00 AM 20.86 69.548 7.13 8.94 -5
6/8/2022 8:30:00 AM 20.37 68.666 7.11 9.96 -5
6/8/2022 8:45:00 AM 20.74 69.332 7.05 9.99 -5
6/8/2022 9:00:00 AM 20.48 68.864 6.91 82.3 -5
6/8/2022 9:15:00 AM 19.84 67.712 6.47 110.94 -5
6/8/2022 9:30:00 AM 19.47 67.046 6.55 22.32 -5
6/8/2022 9:45:00 AM 19.23 66.614 6.43 13.46 -5
6/8/2022 10:00:00 AM 19.62 67.316 6.45 12.65 -5
6/8/2022 10:15:00 AM 19.23 66.614 6.48 9.32 -5
6/8/2022 10:30:00 AM 19.47 67.046 6.45 8.29 -5
6/8/2022 10:45:00 AM 19.84 67.712 6.48 7.82 -5
6/8/2022 11:00:00 AM 18.98 66.164 6.52 8.1 -5
6/8/2022 11:15:00 AM 19.1 66.38 6.52 8.09 -5
6/8/2022 11:30:00 AM 19.1 66.38 6.53 7.97 -5
6/8/2022 11:45:00 AM 19.09 66.362 6.51 7.19 -5
6/8/2022 12:00:00 PM 19.36 66.848 6.51 6.71 -5
6/8/2022 12:15:00 PM 19.1 66.38 6.51 7.71 -5
6/8/2022 12:30:00 PM 19.36 66.848 6.52 11.14 -5
6/8/2022 12:45:00 PM 19.47 67.046 6.53 11.01 -5
6/8/2022 1:00:00 PM 18.98 66.164 6.55 12.01 -5
6/8/2022 1:15:00 PM 19.36 66.848 6.55 10.81 -5
6/8/2022 1:30:00 PM 20.11 68.198 6.6 50.45 -5
6/8/2022 1:45:00 PM 21.5 70.7 7.04 16.19 -5
6/8/2022 2:00:00 PM 22.25 72.05 7.28 12.41 -5
6/8/2022 2:15:00 PM 21.99 71.582 7.35 9.66 -5
6/8/2022 2:30:00 PM 22.63 72.734 7.41 9.81 -5
6/8/2022 2:45:00 PM 22.25 72.05 7.44 10.19 -5
6/8/2022 3:00:00 PM 22.62 72.716 7.48 9.84 -5
6/8/2022 3:15:00 PM 22.63 72.734 7.5 9.8 -5
6/8/2022 3:30:00 PM 22.49 72.482 7.52 9.85 -5
6/8/2022 3:45:00 PM 23 73.4 7.55 9.88 -5
6/8/2022 4:00:00 PM 22.75 72.95 7.56 9.88 -5
6/8/2022 4:15:00 PM 23 73.4 7.58 9.8 -5
6/8/2022 4:30:00 PM 23.13 73.634 7.6 9.8 -5
6/8/2022 4:45:00 PM 22.86 73.148 7.6 9.77 -5
6/8/2022 5:00:00 PM 23.24 73.832 7.62 9.86 -5
6/8/2022 5:15:00 PM 23.24 73.832 7.62 9.79 -5
6/8/2022 5:30:00 PM 23 73.4 7.63 9.83 -5
6/8/2022 5:45:00 PM 23.5 74.3 7.65 9.82 -5
6/8/2022 6:00:00 PM 23.38 74.084 7.65 9.76 -5
6/8/2022 6:15:00 PM 23.13 73.634 7.68 9.77 -5
6/8/2022 6:30:00 PM 23.24 73.832 7.69 9.72 -5
6/8/2022 6:45:00 PM 23.61 74.498 7.7 9.78 -5
6/8/2022 7:00:00 PM 23.38 74.084 7.68 9.77 -5
6/8/2022 7:15:00 PM 23.24 73.832 7.7 9.76 -5
6/8/2022 7:30:00 PM 23.38 74.084 7.71 9.9 -5
6/8/2022 7:45:00 PM 23.61 74.498 7.71 9.71 -5
6/8/2022 8:00:00 PM 23.38 74.084 7.7 9.74 -5
6/8/2022 8:15:00 PM 23.24 73.832 7.7 9.71 -5
6/8/2022 8:30:00 PM 23.13 73.634 7.69 9.8 -5
6/8/2022 8:45:00 PM 23.76 74.768 7.69 9.83 -5
6/8/2022 9:00:00 PM 23.38 74.084 7.68 9.9 -5
6/8/2022 9:15:00 PM 23.24 73.832 7.67 9.92 -5
6/8/2022 9:30:00 PM 23.13 73.634 7.65 9.9 -5
6/8/2022 9:45:00 PM 23.76 74.768 7.63 9.94 -5
6/8/2022 10:00:00 PM 23.38 74.084 7.6 9.9 -5
6/8/2022 10:15:00 PM 23.24 73.832 7.61 9.88 -5
6/8/2022 10:30:00 PM 23.24 73.832 7.58 9.93 -5
6/8/2022 10:45:00 PM 23.61 74.498 7.57 9.95 -5
6/8/2022 11:00:00 PM 23.24 73.832 7.56 9.91 -5
6/8/2022 11:15:00 PM 23.24 73.832 7.56 9.95 -5
6/8/2022 11:30:00 PM 23.5 74.3 7.53 9.92 -5
6/8/2022 11:45:00 PM 23.24 73.832 7.52 9.99 -5
6/9/2022 12:00:00 AM 23.13 73.634 7.5 9.95 -5
6/9/2022 12:15:00 AM 23.61 74.498 7.5 10.01 -5
6/9/2022 12:30:00 AM 23.38 74.084 7.47 10 -5
6/9/2022 12:45:00 AM 23.13 73.634 7.47 10.02 -5
6/9/2022 1:00:00 AM 23.61 74.498 7.47 10.02 -5
6/9/2022 1:15:00 AM 23.24 73.832 7.44 10 -5
6/9/2022 1:30:00 AM 23.13 73.634 7.42 10.11 -5
6/9/2022 1:45:00 AM 23.61 74.498 7.41 10.14 -5
6/9/2022 2:00:00 AM 23.24 73.832 7.38 10.01 -5
6/9/2022 2:15:00 AM 23.13 73.634 7.38 10.02 -5
6/9/2022 2:30:00 AM 23.5 74.3 7.37 9.99 -5
6/9/2022 2:45:00 AM 23.13 73.634 7.36 9.96 -5
6/9/2022 3:00:00 AM 23 73.4 7.34 10.04 -5
6/9/2022 3:15:00 AM 23.5 74.3 7.34 10 -5
6/9/2022 3:30:00 AM 23.13 73.634 7.32 9.96 -5
6/9/2022 3:45:00 AM 23 73.4 7.31 10.18 -5
6/9/2022 4:00:00 AM 23.5 74.3 7.29 10.07 -5
6/9/2022 4:15:00 AM 23.13 73.634 7.29 10.12 -5
6/9/2022 4:30:00 AM 23.13 73.634 7.29 10.38 -5
6/9/2022 4:45:00 AM 23.38 74.084 7.27 10.28 -5
6/9/2022 5:00:00 AM 23 73.4 7.26 10.26 -5
6/9/2022 5:15:00 AM 23 73.4 7.24 10.48 -5
6/9/2022 5:30:00 AM 23.24 73.832 7.23 10.74 -5
6/9/2022 5:45:00 AM 22.86 73.148 7.22 11.06 -5
6/9/2022 6:00:00 AM 23.13 73.634 7.21 11.05 -5
6/9/2022 6:15:00 AM 23 73.4 7.2 10.71 -5
6/9/2022 6:30:00 AM 22.75 72.95 7.19 10.72 -5
6/9/2022 6:45:00 AM 23.13 73.634 7.18 10.65 -5
6/9/2022 7:00:00 AM 22.62 72.716 7.16 10.84 -5
6/9/2022 7:15:00 AM 23 73.4 7.16 10.67 -5
6/9/2022 7:30:00 AM 22.86 73.148 7.29 9.95 -5
6/9/2022 7:45:00 AM 22.49 72.482 7.3 9.62 -5
6/9/2022 8:00:00 AM 23.13 73.634 7.3 9.19 -5
6/9/2022 8:15:00 AM 22.62 72.716 7.29 9.33 -5
6/9/2022 8:30:00 AM 22.75 72.95 7.28 9.84 -5
6/9/2022 8:45:00 AM 23 73.4 7.28 9.9 -5
6/9/2022 9:00:00 AM 22.49 72.482 7.27 9.84 -5
6/9/2022 9:15:00 AM 22.75 72.95 7.27 9.59 -5
6/9/2022 9:30:00 AM 22.75 72.95 7.26 9.69 -5
6/9/2022 9:45:00 AM 22.36 72.248 7.26 9.87 -5
6/9/2022 10:00:00 AM 22.63 72.734 7.27 9.86 -5
6/9/2022 10:15:00 AM 22.75 72.95 7.28 9.97 -5
6/9/2022 10:30:00 AM 22.36 72.248 7.28 9.96 -5
6/9/2022 10:45:00 AM 22.75 72.95 7.29 10.07 -5
6/9/2022 11:00:00 AM 22.7 72.86 7.3 9.98 -5
6/9/2022 11:15:00 AM 22.36 72.248 7.31 10.05 -5
6/9/2022 11:30:00 AM 23.13 73.634 7.32 10.09 -5
6/9/2022 11:45:00 AM 22.63 72.734 7.32 10.02 -5
6/9/2022 12:00:00 PM 22.75 72.95 7.32 10 -5
6/9/2022 12:15:00 PM 22.99 73.382 7.33 9.79 -5
6/9/2022 12:30:00 PM 22.49 72.482 7.33 9.92 -5
6/9/2022 12:45:00 PM 23.13 73.634 7.34 10.14 -5
6/9/2022 1:00:00 PM 22.86 73.148 7.35 10.07 -5
6/9/2022 1:15:00 PM 22.75 72.95 7.36 10.61 -5
6/9/2022 1:30:00 PM 23.38 74.084 7.36 11.13 -5
6/9/2022 1:45:00 PM 23 73.4 7.37 10.97 -5
6/9/2022 2:00:00 PM 23 73.4 7.37 10.75 -5
6/9/2022 2:15:00 PM 23.38 74.084 7.38 10.67 -5
6/9/2022 2:30:00 PM 23 73.4 7.39 10.94 -5
6/9/2022 2:45:00 PM 23 73.4 7.39 10.6 -5
6/9/2022 3:00:00 PM 23.38 74.084 7.4 10.56 -5
6/9/2022 3:15:00 PM 22.86 73.148 7.4 10.71 -5
6/9/2022 3:30:00 PM 23 73.4 7.42 10.71 -5
6/9/2022 3:45:00 PM 23.5 74.3 7.43 10.82 -5
6/9/2022 4:00:00 PM 23 73.4 7.42 10.74 -5
6/9/2022 4:15:00 PM 23.13 73.634 7.44 10.96 -5
6/9/2022 4:30:00 PM 23.62 74.516 7.46 10.87 -5
6/9/2022 4:45:00 PM 23.13 73.634 7.47 11.09 -5
6/9/2022 5:00:00 PM 23.24 73.832 7.48 11.14 -5
6/9/2022 5:15:00 PM 23.5 74.3 7.49 11.16 -5
6/9/2022 5:30:00 PM 23.13 73.634 7.5 11.18 -5
6/9/2022 5:45:00 PM 23.5 74.3 7.5 11.29 -5
6/9/2022 6:00:00 PM 23.13 73.634 7.51 11.11 -5
6/9/2022 6:15:00 PM 23.13 73.634 7.53 11.25 -5
6/9/2022 6:30:00 PM 23.24 73.832 7.53 11.28 -5
6/9/2022 6:45:00 PM 22.75 72.95 7.53 11.56 -5
6/9/2022 7:00:00 PM 23.13 73.634 7.52 12.32 -5
6/9/2022 7:15:00 PM 22.86 73.148 7.52 12.7 -5
6/9/2022 7:30:00 PM 22.63 72.734 7.53 12.73 -5
6/9/2022 7:45:00 PM 23.13 73.634 7.54 12.7 -5
6/9/2022 8:00:00 PM 22.86 73.148 7.53 12.37 -5
6/9/2022 8:15:00 PM 22.62 72.716 7.53 12.23 -5
6/9/2022 8:30:00 PM 23.13 73.634 7.52 12.36 -5
6/9/2022 8:45:00 PM 22.63 72.734 7.52 12.41 -5
6/9/2022 9:00:00 PM 22.63 72.734 7.52 12.26 -5
6/9/2022 9:15:00 PM 22.87 73.166 7.51 12.32 -5
6/9/2022 9:30:00 PM 22.49 72.482 7.5 12.42 -5
6/9/2022 9:45:00 PM 22.86 73.148 7.49 12.68 -5
6/9/2022 10:00:00 PM 22.49 72.482 7.48 12.5 -5
6/9/2022 10:15:00 PM 22.49 72.482 7.46 12.71 -5
6/9/2022 10:30:00 PM 22.63 72.734 7.45 12.63 -5
6/9/2022 10:45:00 PM 22.25 72.05 7.43 12.88 -5
6/9/2022 11:00:00 PM 22.62 72.716 7.42 12.95 -5
6/9/2022 11:15:00 PM 22.36 72.248 7.4 13.25 -5
6/9/2022 11:30:00 PM 22.25 72.05 7.39 13.45 -5
6/9/2022 11:45:00 PM 22.49 72.482 7.38 13.89 -5
6/10/2022 12:00:00 AM 22.11 71.798 7.37 13.8 -5
6/10/2022 12:15:00 AM 22.49 72.482 7.36 14.02 -5
6/10/2022 12:30:00 AM 22.36 72.248 7.36 14.35 -5
6/10/2022 12:45:00 AM 22.25 72.05 7.34 14.68 -5
6/10/2022 1:00:00 AM 22.36 72.248 7.33 14.78 -5
6/10/2022 1:15:00 AM 21.98 71.564 7.32 14.87 -5
6/10/2022 1:30:00 AM 22.49 72.482 7.31 15.21 -5
6/10/2022 1:45:00 AM 21.99 71.582 7.3 15.42 -5
6/10/2022 2:00:00 AM 22.11 71.798 7.29 15.26 -5
6/10/2022 2:15:00 AM 22.25 72.05 7.28 15.35 -5
6/10/2022 2:30:00 AM 21.87 71.366 7.28 15.32 -5
6/10/2022 2:45:00 AM 22.36 72.248 7.27 15.64 -5
6/10/2022 3:00:00 AM 21.99 71.582 7.26 15.41 -5
6/10/2022 3:15:00 AM 22.11 71.798 7.26 15.49 -5
6/10/2022 3:30:00 AM 22.11 71.798 7.25 15.48 -5
6/10/2022 3:45:00 AM 21.73 71.114 7.24 15.7 -5
6/10/2022 4:00:00 AM 22.25 72.05 7.23 15.75 -5
6/10/2022 4:15:00 AM 21.73 71.114 7.22 15.67 -5
6/10/2022 4:30:00 AM 21.99 71.582 7.21 15.82 -5
6/10/2022 4:45:00 AM 21.87 71.366 7.21 16.13 -5
6/10/2022 5:00:00 AM 21.73 71.114 7.2 16.03 -5
6/10/2022 5:15:00 AM 22.11 71.798 7.19 16.18 -5
6/10/2022 5:30:00 AM 21.5 70.7 7.18 16.44 -5
6/10/2022 5:45:00 AM 21.87 71.366 7.17 16.82 -5
6/10/2022 6:00:00 AM 21.73 71.114 7.17 16.68 -5
6/10/2022 6:15:00 AM 21.62 70.916 7.16 16.9 -5
6/10/2022 6:30:00 AM 21.98 71.564 7.16 16.98 -5
6/10/2022 6:45:00 AM 21.5 70.7 7.15 17.72 -5
6/10/2022 7:00:00 AM 21.73 71.114 7.15 17.79 -5
6/10/2022 7:15:00 AM 21.73 71.114 7.14 18.47 -5
6/10/2022 7:30:00 AM 21.36 70.448 7.13 16.51 -5
6/10/2022 7:45:00 AM 21.87 71.366 7.16 17.37 -5
6/10/2022 8:00:00 AM 21.24 70.232 7.18 17.78 -5
6/10/2022 8:15:00 AM 21.62 70.916 7.18 17.81 -5
6/10/2022 8:30:00 AM 21.5 70.7 7.18 18.29 -5
6/10/2022 8:45:00 AM 21.24 70.232 7.19 18.97 -5
6/10/2022 9:00:00 AM 21.62 70.916 7.19 19.31 -5
6/10/2022 9:15:00 AM 20.98 69.764 7.19 19.53 -5
6/10/2022 9:30:00 AM 21.36 70.448 7.2 20 -5
6/10/2022 9:45:00 AM 21.25 70.25 7.2 20.15 -5
6/10/2022 10:00:00 AM 21.11 69.998 7.2 20.12 -5
6/10/2022 10:15:00 AM 21.62 70.916 7.2 19.59 -5
6/10/2022 10:30:00 AM 20.98 69.764 7.21 19.92 -5
6/10/2022 10:45:00 AM 21.36 70.448 7.2 19.79 -5
6/10/2022 11:00:00 AM 21.36 70.448 7.21 19.9 -5
6/10/2022 11:15:00 AM 21.36 70.448 7.22 19.88 -5
6/10/2022 11:30:00 AM 21.5 70.7 7.22 19.66 -5
6/10/2022 11:45:00 AM 20.87 69.566 7.22 20.76 -5
6/10/2022 12:00:00 PM 21.73 71.114 7.23 20.27 -5
6/10/2022 12:15:00 PM 21.24 70.232 7.24 20.31 -5
6/10/2022 12:30:00 PM 21.11 69.998 7.24 19.95 -5
6/10/2022 12:45:00 PM 21.11 69.998 7.24 19.9 -5
6/10/2022 1:00:00 PM 20.61 69.098 7.25 19.82 -5
6/10/2022 1:15:00 PM 21.36 70.448 7.25 19.69 -5
6/10/2022 1:30:00 PM 20.98 69.764 7.26 18.65 -5
6/10/2022 1:45:00 PM 21.62 70.916 7.26 18.65 -5
6/10/2022 2:00:00 PM 21.5 70.7 7.26 18.51 -5
6/10/2022 2:15:00 PM 21.62 70.916 7.27 18.44 -5
6/10/2022 2:30:00 PM 21.99 71.582 7.27 18.39 -5
6/10/2022 2:45:00 PM 21.25 70.25 7.28 18.05 -5
6/10/2022 3:00:00 PM 21.62 70.916 7.28 17.82 -5
6/10/2022 3:15:00 PM 21.11 69.998 7.29 17.94 -5
6/10/2022 3:30:00 PM 21.62 70.916 7.3 18.38 -5
6/10/2022 3:45:00 PM 22.25 72.05 7.3 17.95 -5
6/10/2022 4:00:00 PM 21.87 71.366 7.32 17.88 -5
6/10/2022 4:15:00 PM 22.36 72.248 7.32 18.16 -5
6/10/2022 4:30:00 PM 22.11 71.798 7.33 18.24 -5
6/10/2022 4:45:00 PM 21.87 71.366 7.33 18.47 -5
6/10/2022 5:00:00 PM 22.36 72.248 7.34 17.95 -5
6/10/2022 5:15:00 PM 21.99 71.582 7.35 18 -5
6/10/2022 5:30:00 PM 22.36 72.248 7.36 17.68 -5
6/10/2022 5:45:00 PM 22.36 72.248 7.36 17.76 -5
6/10/2022 6:00:00 PM 21.99 71.582 7.36 17.6 -5
6/10/2022 6:15:00 PM 22.36 72.248 7.37 17.5 -5
6/10/2022 6:30:00 PM 22.36 72.248 7.37 17.5 -5
6/10/2022 6:45:00 PM 21.99 71.582 7.37 17.84 -5
6/10/2022 7:00:00 PM 22.36 72.248 7.38 17.38 -5
6/10/2022 7:15:00 PM 22.36 72.248